Observation data for Romero 11SSW on 03/24/2019      Previous  Date  Next       Current Mesonet Observations  Soil Data  Daily Summary Page  Observations in Plain Language
KBR1 240500Z 32009KT 10/00 A2999 RMK A01 T00970002  RH  051%=      5-min Rain = 0
KBR1 240501Z 32010KT 10/00 A2999 RMK A01 T00970003  RH  052%=      5-min Rain = 0
KBR1 240502Z 32009KT 10/00 A2999 RMK A01 T00960004  RH  053%=      5-min Rain = 0
KBR1 240503Z 31009KT 10/00 A2999 RMK A01 T00950004  RH  053%=      5-min Rain = 0
KBR1 240504Z 31010KT 10/00 A2999 RMK A01 T00950003  RH  053%=      5-min Rain = 0
KBR1 240505Z 31010KT 10/00 A2999 RMK A01 T00950003  RH  053%=      5-min Rain = 0
KBR1 240506Z 32010KT 10/00 A2999 RMK A01 T00950003  RH  053%=      5-min Rain = 0
KBR1 240507Z 32010KT 10/00 A30 RMK A01 T00950002  RH  052%=      5-min Rain = 0
KBR1 240508Z 32010KT 10/00 A2999 RMK A01 T00960002  RH  052%=      5-min Rain = 0
KBR1 240509Z 32011KT 10/00 A30 RMK A01 T00970001  RH  051%=      5-min Rain = 0
KBR1 240510Z 32011KT 10/00 A30 RMK A01 T00980001  RH  051%=      5-min Rain = 0
KBR1 240511Z 32010KT 10/00 A30 RMK A01 T00990002  RH  051%=      5-min Rain = 0
KBR1 240512Z 32010KT 10/00 A2999 RMK A01 T00990001  RH  051%=      5-min Rain = 0
KBR1 240513Z 32011KT 10/00 A2999 RMK A01 T01000001  RH  050%=      5-min Rain = 0
KBR1 240514Z 33011KT 10/00 A2999 RMK A01 T01010001  RH  050%=      5-min Rain = 0
KBR1 240515Z 33013KT 10/00 A2999 RMK A01 T01030001  RH  049%=      5-min Rain = 0
KBR1 240516Z 33014KT 11/00 A2999 RMK A01 T01050001  RH  048%=      5-min Rain = 0
KBR1 240517Z 32014KT 11/00 A2999 RMK A01 T01070000  RH  048%=      5-min Rain = 0
KBR1 240518Z 32014KT 11/00 A2999 RMK A01 T010800-0  RH  047%=      5-min Rain = 0
KBR1 240519Z 32014KT 11/M00 A2999 RMK A01 T01091002  RH  046%=      5-min Rain = 0
KBR1 240520Z 32015KT 11/00 A30 RMK A01 T01090000  RH  047%=      5-min Rain = 0
KBR1 240521Z 33013KT 11/M00 A2999 RMK A01 T01091001  RH  047%=      5-min Rain = 0
KBR1 240522Z 32014KT 11/00 A30 RMK A01 T01090001  RH  047%=      5-min Rain = 0
KBR1 240523Z 33015G20KT 11/00 A30 RMK A01 T01070001  RH  048%=      5-min Rain = 0
KBR1 240524Z 32016G21KT 11/00 A30 RMK A01 T01060002  RH  048%=      5-min Rain = 0
KBR1 240525Z 33016KT 11/00 A30 RMK A01 T01060001  RH  048%=      5-min Rain = 0
KBR1 240526Z 32018KT 11/00 A30 RMK A01 T01060003  RH  049%=      5-min Rain = 0
KBR1 240527Z 33016KT 11/00 A30 RMK A01 T01050004  RH  050%=      5-min Rain = 0
KBR1 240528Z 33014KT 10/01 A30 RMK A01 T01040005  RH  050%=      5-min Rain = 0
KBR1 240529Z 33016KT 10/01 A30 RMK A01 T01030006  RH  051%=      5-min Rain = 0
KBR1 240530Z 33016KT 10/01 A30 RMK A01 T01010008  RH  052%=      5-min Rain = 0
KBR1 240531Z 33020KT 10/01 A30 RMK A01 T00990009  RH  053%=      5-min Rain = 0
KBR1 240532Z 34020KT 10/01 A30 RMK A01 T00980010  RH  054%=      5-min Rain = 0
KBR1 240533Z 34018G24KT 10/01 A30 RMK A01 T00970012  RH  055%=      5-min Rain = 0
KBR1 240534Z 34019KT 10/01 A30 RMK A01 T00950014  RH  057%=      5-min Rain = 0
KBR1 240535Z 35016KT 09/02 A30 RMK A01 T00920016  RH  059%=      5-min Rain = 0
KBR1 240536Z 34018KT 09/02 A30 RMK A01 T00900017  RH  060%=      5-min Rain = 0
KBR1 240537Z 35018KT 09/02 A30 RMK A01 T00880019  RH  062%=      5-min Rain = 0
KBR1 240538Z 34020G25KT 09/02 A30 RMK A01 T00860020  RH  063%=      5-min Rain = 0
KBR1 240539Z 35020G25KT 08/02 A30 RMK A01 T00840021  RH  064%=      5-min Rain = 0
KBR1 240540Z 35020KT 08/02 A30 RMK A01 T00830022  RH  066%=      5-min Rain = 0
KBR1 240541Z 35021KT 08/02 A30 RMK A01 T00810024  RH  067%=      5-min Rain = 0
KBR1 240542Z 36020G27KT 08/03 A30 RMK A01 T00800026  RH  069%=      5-min Rain = 0
KBR1 240543Z 35024KT 08/03 A30 RMK A01 T00790027  RH  070%=      5-min Rain = 0
KBR1 240544Z 36024KT 08/03 A30 RMK A01 T00780028  RH  071%=      5-min Rain = 0
KBR1 240545Z 36022G28KT 08/03 A30 RMK A01 T00780030  RH  072%=      5-min Rain = 0
KBR1 240546Z 36024KT 08/03 A30 RMK A01 T00770030  RH  072%=      5-min Rain = 0
KBR1 240547Z 36023KT 08/03 A3001 RMK A01 T00770031  RH  073%=      5-min Rain = 0
KBR1 240548Z 36024KT 08/03 A3001 RMK A01 T00760032  RH  074%=      5-min Rain = 0
KBR1 240549Z 36024KT 08/03 A3001 RMK A01 T00760032  RH  074%=      5-min Rain = 0
KBR1 240550Z 35026G32KT 08/03 A3001 RMK A01 T00750033  RH  075%=      5-min Rain = 0
KBR1 240551Z 00025KT 07/03 A3001 RMK A01 T00740032  RH  075%=      5-min Rain = 0
KBR1 240552Z 00023G28KT 07/03 A3001 RMK A01 T00740033  RH  075%=      5-min Rain = 0
KBR1 240553Z 00024G29KT 07/03 A3001 RMK A01 T00740033  RH  075%=      5-min Rain = 0
KBR1 240554Z 00023KT 07/03 A3001 RMK A01 T00740032  RH  075%=      5-min Rain = 0
KBR1 240555Z 00022G27KT 07/03 A3001 RMK A01 T00740033  RH  075%=      5-min Rain = 0
KBR1 240556Z 00021KT 07/03 A3001 RMK A01 T00730033  RH  076%=      5-min Rain = 0
KBR1 240557Z 00022KT 07/03 A3001 RMK A01 T00730033  RH  076%=      5-min Rain = 0
KBR1 240558Z 36022KT 07/03 A3002 RMK A01 T00730033  RH  076%=      5-min Rain = 0
KBR1 240559Z 00019G24KT 07/03 A3002 RMK A01 T00730034  RH  076%=      5-min Rain = 0
KBR1 240600Z 36019KT 07/03 A3002 RMK A01 T00720034  RH  077%=      5-min Rain = 0
KBR1 240601Z 00019G25KT 07/03 A3002 RMK A01 T00710034  RH  077%=      5-min Rain = 0
KBR1 240602Z 00020KT 07/03 A3002 RMK A01 T00710033  RH  077%=      5-min Rain = 0
KBR1 240603Z 00020KT 07/03 A3002 RMK A01 T00710033  RH  077%=      5-min Rain = 0
KBR1 240604Z 00022KT 07/03 A3002 RMK A01 T00710033  RH  077%=      5-min Rain = 0
KBR1 240605Z 01021KT 07/03 A3002 RMK A01 T00710034  RH  077%=      5-min Rain = 0
KBR1 240606Z 01021KT 07/03 A3001 RMK A01 T00700033  RH  077%=      5-min Rain = 0
KBR1 240607Z 02019KT 07/03 A3001 RMK A01 T00700033  RH  077%=      5-min Rain = 0
KBR1 240608Z 01020KT 07/03 A3002 RMK A01 T00690033  RH  077%=      5-min Rain = 0
KBR1 240609Z 00020KT 07/03 A3002 RMK A01 T00690032  RH  077%=      5-min Rain = 0
KBR1 240610Z 00018KT 07/03 A3002 RMK A01 T00700032  RH  077%=      5-min Rain = 0
KBR1 240611Z 01019KT 07/03 A3002 RMK A01 T00690033  RH  077%=      5-min Rain = 0
KBR1 240612Z 00021KT 07/03 A3002 RMK A01 T00690033  RH  077%=      5-min Rain = 0
KBR1 240613Z 01020KT 07/03 A3002 RMK A01 T00690033  RH  078%=      5-min Rain = 0
KBR1 240614Z 01017KT 07/03 A3002 RMK A01 T00690032  RH  077%=      5-min Rain = 0
KBR1 240615Z 01019G25KT 07/03 A3002 RMK A01 T00680032  RH  077%=      5-min Rain = 0
KBR1 240616Z 01020KT 07/03 A3002 RMK A01 T00680031  RH  077%=      5-min Rain = 0
KBR1 240617Z 01018KT 07/03 A3002 RMK A01 T00690031  RH  077%=      5-min Rain = 0
KBR1 240618Z 01017KT 07/03 A3002 RMK A01 T00690031  RH  077%=      5-min Rain = 0
KBR1 240619Z 01018KT 07/03 A3002 RMK A01 T00680031  RH  077%=      5-min Rain = 0
KBR1 240620Z 01020KT 07/03 A3002 RMK A01 T00680030  RH  077%=      5-min Rain = 0
KBR1 240621Z 01018KT 07/03 A3002 RMK A01 T00680030  RH  077%=      5-min Rain = 0
KBR1 240622Z 01019KT 07/03 A3002 RMK A01 T00680030  RH  077%=      5-min Rain = 0
KBR1 240623Z 01019KT 07/03 A3002 RMK A01 T00680029  RH  076%=      5-min Rain = 0
KBR1 240624Z 01017KT 07/03 A3002 RMK A01 T00680030  RH  076%=      5-min Rain = 0
KBR1 240625Z 01019KT 07/03 A3002 RMK A01 T00680029  RH  077%=      5-min Rain = 0
KBR1 240626Z 01017G22KT 07/03 A3002 RMK A01 T00670029  RH  077%=      5-min Rain = 0
KBR1 240627Z 00017G22KT 07/03 A3002 RMK A01 T00670030  RH  077%=      5-min Rain = 0
KBR1 240628Z 01019KT 07/03 A3002 RMK A01 T00670030  RH  077%=      5-min Rain = 0
KBR1 240629Z 01019KT 07/03 A3002 RMK A01 T00670029  RH  077%=      5-min Rain = 0
KBR1 240630Z 01018KT 07/03 A3002 RMK A01 T00670030  RH  077%=      5-min Rain = 0
KBR1 240631Z 01019KT 07/03 A3002 RMK A01 T00660029  RH  077%=      5-min Rain = 0
KBR1 240632Z 01018KT 07/03 A3002 RMK A01 T00660029  RH  077%=      5-min Rain = 0
KBR1 240633Z 01018KT 07/03 A3002 RMK A01 T00660029  RH  077%=      5-min Rain = 0
KBR1 240634Z 01019KT 07/03 A3002 RMK A01 T00650029  RH  077%=      5-min Rain = 0
KBR1 240635Z 01020KT 07/03 A3002 RMK A01 T00650029  RH  077%=      5-min Rain = 0
KBR1 240636Z 01019G24KT 07/03 A3002 RMK A01 T00650028  RH  077%=      5-min Rain = 0
KBR1 240637Z 01020KT 07/03 A3002 RMK A01 T00650028  RH  077%=      5-min Rain = 0
KBR1 240638Z 01018KT 07/03 A3002 RMK A01 T00650028  RH  077%=      5-min Rain = 0
KBR1 240639Z 01016G21KT 07/03 A3002 RMK A01 T00660028  RH  077%=      5-min Rain = 0
KBR1 240640Z 00015KT 07/03 A3002 RMK A01 T00650028  RH  077%=      5-min Rain = 0
KBR1 240641Z 00017KT 07/03 A3002 RMK A01 T00650028  RH  078%=      5-min Rain = 0
KBR1 240642Z 00018KT 07/03 A3002 RMK A01 T00650027  RH  077%=      5-min Rain = 0
KBR1 240643Z 00017KT 07/03 A3002 RMK A01 T00650027  RH  077%=      5-min Rain = 0
KBR1 240644Z 00017KT 07/03 A3002 RMK A01 T00660027  RH  076%=      5-min Rain = 0
KBR1 240645Z 00015KT 07/03 A3002 RMK A01 T00650027  RH  076%=      5-min Rain = 0
KBR1 240646Z 00014KT 07/03 A3002 RMK A01 T00650027  RH  077%=      5-min Rain = 0
KBR1 240647Z 01015KT 06/03 A3002 RMK A01 T00640027  RH  077%=      5-min Rain = 0
KBR1 240648Z 01014KT 06/03 A3002 RMK A01 T00640026  RH  077%=      5-min Rain = 0
KBR1 240649Z 00014KT 06/03 A3002 RMK A01 T00640026  RH  077%=      5-min Rain = 0
KBR1 240650Z 00015KT 06/03 A3002 RMK A01 T00640026  RH  077%=      5-min Rain = 0
KBR1 240651Z 01013KT 06/03 A3003 RMK A01 T00640026  RH  077%=      5-min Rain = 0
KBR1 240652Z 00015KT 06/03 A3003 RMK A01 T00640026  RH  077%=      5-min Rain = 0
KBR1 240653Z 00016KT 06/03 A3003 RMK A01 T00640026  RH  077%=      5-min Rain = 0
KBR1 240654Z 36015KT 06/03 A3003 RMK A01 T00630025  RH  077%=      5-min Rain = 0
KBR1 240655Z 00014KT 06/03 A3003 RMK A01 T00640025  RH  076%=      5-min Rain = 0
KBR1 240656Z 36014KT 06/03 A3003 RMK A01 T00640026  RH  076%=      5-min Rain = 0
KBR1 240657Z 00014KT 06/03 A3003 RMK A01 T00640026  RH  077%=      5-min Rain = 0
KBR1 240658Z 00013KT 06/03 A3003 RMK A01 T00630026  RH  077%=      5-min Rain = 0
KBR1 240659Z 00014KT 06/03 A3003 RMK A01 T00630026  RH  077%=      5-min Rain = 0
KBR1 240700Z 36014KT 06/03 A3003 RMK A01 T00630026  RH  077%=      5-min Rain = 0
KBR1 240701Z 00014KT 06/03 A3003 RMK A01 T00630025  RH  077%=      5-min Rain = 0
KBR1 240702Z 00013KT 06/03 A3003 RMK A01 T00630026  RH  077%=      5-min Rain = 0
KBR1 240703Z 36014KT 06/03 A3003 RMK A01 T00620025  RH  077%=      5-min Rain = 0
KBR1 240704Z 00015KT 06/03 A3003 RMK A01 T00620026  RH  077%=      5-min Rain = 0
KBR1 240705Z 01015KT 06/03 A3003 RMK A01 T00620025  RH  077%=      5-min Rain = 0
KBR1 240706Z 36012KT 06/03 A3003 RMK A01 T00620025  RH  077%=      5-min Rain = 0
KBR1 240707Z 36013KT 06/03 A3003 RMK A01 T00620026  RH  077%=      5-min Rain = 0
KBR1 240708Z 35011KT 06/03 A3003 RMK A01 T00610025  RH  078%=      5-min Rain = 0
KBR1 240709Z 35011KT 06/03 A3003 RMK A01 T00610025  RH  078%=      5-min Rain = 0
KBR1 240710Z 36012KT 06/03 A3003 RMK A01 T00600025  RH  078%=      5-min Rain = 0
KBR1 240711Z 36012KT 06/03 A3003 RMK A01 T00600025  RH  078%=      5-min Rain = 0
KBR1 240712Z 00011KT 06/03 A3003 RMK A01 T00610026  RH  078%=      5-min Rain = 0
KBR1 240713Z 36011KT 06/03 A3004 RMK A01 T00600026  RH  079%=      5-min Rain = 0
KBR1 240714Z 36012KT 06/03 A3004 RMK A01 T00600025  RH  078%=      5-min Rain = 0
KBR1 240715Z 36011KT 06/03 A3004 RMK A01 T00600026  RH  078%=      5-min Rain = 0
KBR1 240716Z 36011KT 06/03 A3004 RMK A01 T00600025  RH  079%=      5-min Rain = 0
KBR1 240717Z 36011KT 06/03 A3004 RMK A01 T00600025  RH  078%=      5-min Rain = 0
KBR1 240718Z 36010KT 06/03 A3004 RMK A01 T00600025  RH  078%=      5-min Rain = 0
KBR1 240719Z 35009KT 06/03 A3004 RMK A01 T00600025  RH  079%=      5-min Rain = 0
KBR1 240720Z 36007KT 06/03 A3004 RMK A01 T00600026  RH  079%=      5-min Rain = 0
KBR1 240721Z 35007KT 06/03 A3004 RMK A01 T00590026  RH  079%=      5-min Rain = 0
KBR1 240722Z 36007KT 06/03 A3004 RMK A01 T00580025  RH  080%=      5-min Rain = 0
KBR1 240723Z 00007KT 06/03 A3005 RMK A01 T00580025  RH  080%=      5-min Rain = 0
KBR1 240724Z 36006KT 06/03 A3005 RMK A01 T00570025  RH  080%=      5-min Rain = 0
KBR1 240725Z 00007KT 06/03 A3005 RMK A01 T00570025  RH  080%=      5-min Rain = 0
KBR1 240726Z 01008KT 06/03 A3005 RMK A01 T00560025  RH  080%=      5-min Rain = 0
KBR1 240727Z 01007KT 06/03 A3005 RMK A01 T00560025  RH  080%=      5-min Rain = 0
KBR1 240728Z 01007KT 06/03 A3005 RMK A01 T00570025  RH  080%=      5-min Rain = 0
KBR1 240729Z 01008KT 06/02 A3005 RMK A01 T00560024  RH  080%=      5-min Rain = 0
KBR1 240730Z 01009KT 06/02 A3005 RMK A01 T00560024  RH  080%=      5-min Rain = 0
KBR1 240731Z 01008KT 06/02 A3005 RMK A01 T00570024  RH  079%=      5-min Rain = 0
KBR1 240732Z 00008KT 06/02 A3005 RMK A01 T00570024  RH  079%=      5-min Rain = 0
KBR1 240733Z 00009KT 06/02 A3005 RMK A01 T00570024  RH  079%=      5-min Rain = 0
KBR1 240734Z 00008KT 06/02 A3005 RMK A01 T00570024  RH  079%=      5-min Rain = 0
KBR1 240735Z 00009KT 06/03 A3005 RMK A01 T00580025  RH  079%=      5-min Rain = 0
KBR1 240736Z 36010KT 06/02 A3005 RMK A01 T00580024  RH  079%=      5-min Rain = 0
KBR1 240737Z 00009KT 06/02 A3005 RMK A01 T00580024  RH  079%=      5-min Rain = 0
KBR1 240738Z 36010KT 06/02 A3005 RMK A01 T00580024  RH  079%=      5-min Rain = 0
KBR1 240739Z 00010KT 06/02 A3005 RMK A01 T00580024  RH  079%=      5-min Rain = 0
KBR1 240740Z 00011KT 06/02 A3005 RMK A01 T00580024  RH  079%=      5-min Rain = 0
KBR1 240741Z 00009KT 06/02 A3005 RMK A01 T00580024  RH  079%=      5-min Rain = 0
KBR1 240742Z 00010KT 06/02 A3005 RMK A01 T00580024  RH  079%=      5-min Rain = 0
KBR1 240743Z 00011KT 06/02 A3005 RMK A01 T00580024  RH  079%=      5-min Rain = 0
KBR1 240744Z 00010KT 06/02 A3005 RMK A01 T00570024  RH  079%=      5-min Rain = 0
KBR1 240745Z 00010KT 06/02 A3005 RMK A01 T00570024  RH  079%=      5-min Rain = 0
KBR1 240746Z 00010KT 06/02 A3005 RMK A01 T00570024  RH  080%=      5-min Rain = 0
KBR1 240747Z 00009KT 06/02 A3005 RMK A01 T00560024  RH  080%=      5-min Rain = 0
KBR1 240748Z 00010KT 06/02 A3005 RMK A01 T00560024  RH  080%=      5-min Rain = 0
KBR1 240749Z 01009KT 06/02 A3005 RMK A01 T00560024  RH  080%=      5-min Rain = 0
KBR1 240750Z 01008KT 06/02 A3005 RMK A01 T00550024  RH  080%=      5-min Rain = 0
KBR1 240751Z 01009KT 06/03 A3005 RMK A01 T00550025  RH  081%=      5-min Rain = 0
KBR1 240752Z 00009KT 05/02 A3005 RMK A01 T00540024  RH  081%=      5-min Rain = 0
KBR1 240753Z 00009KT 05/02 A3005 RMK A01 T00540024  RH  081%=      5-min Rain = 0
KBR1 240754Z 00009KT 05/03 A3005 RMK A01 T00540025  RH  082%=      5-min Rain = 0
KBR1 240755Z 01010KT 05/02 A3005 RMK A01 T00530024  RH  082%=      5-min Rain = 0
KBR1 240756Z 01009KT 05/03 A3005 RMK A01 T00530025  RH  082%=      5-min Rain = 0
KBR1 240757Z 00009KT 05/02 A3005 RMK A01 T00530024  RH  082%=      5-min Rain = 0
KBR1 240758Z 00010KT 05/02 A3005 RMK A01 T00520024  RH  082%=      5-min Rain = 0
KBR1 240759Z 00009KT 05/02 A3005 RMK A01 T00520024  RH  082%=      5-min Rain = 0
KBR1 240800Z 00009KT 05/02 A3005 RMK A01 T00520024  RH  082%=      5-min Rain = 0
KBR1 240801Z 00009KT 05/02 A3005 RMK A01 T00520024  RH  082%=      5-min Rain = 0
KBR1 240802Z 36009KT 05/02 A3005 RMK A01 T00510024  RH  083%=      5-min Rain = 0
KBR1 240803Z 00009KT 05/02 A3005 RMK A01 T00510024  RH  083%=      5-min Rain = 0
KBR1 240804Z 00009KT 05/02 A3005 RMK A01 T00510024  RH  083%=      5-min Rain = 0
KBR1 240805Z 00009KT 05/02 A3005 RMK A01 T00510024  RH  083%=      5-min Rain = 0
KBR1 240806Z 00009KT 05/02 A3005 RMK A01 T00510024  RH  082%=      5-min Rain = 0
KBR1 240807Z 36008KT 05/02 A3005 RMK A01 T00510024  RH  082%=      5-min Rain = 0
KBR1 240808Z 00009KT 05/02 A3005 RMK A01 T00510024  RH  083%=      5-min Rain = 0
KBR1 240809Z 36008KT 05/02 A3005 RMK A01 T00510024  RH  083%=      5-min Rain = 0
KBR1 240810Z 36009KT 05/02 A3005 RMK A01 T00510024  RH  083%=      5-min Rain = 0
KBR1 240811Z 36008KT 05/02 A3005 RMK A01 T00510024  RH  083%=      5-min Rain = 0
KBR1 240812Z 35008KT 05/02 A3006 RMK A01 T00510023  RH  082%=      5-min Rain = 0
KBR1 240813Z 35007KT 05/02 A3006 RMK A01 T00510024  RH  082%=      5-min Rain = 0
KBR1 240814Z 35006KT 05/02 A3006 RMK A01 T00510024  RH  083%=      5-min Rain = 0
KBR1 240815Z 34006KT 05/02 A3006 RMK A01 T00500023  RH  083%=      5-min Rain = 0
KBR1 240816Z 34006KT 05/02 A3006 RMK A01 T00500023  RH  083%=      5-min Rain = 0
KBR1 240817Z 34006KT 05/02 A3006 RMK A01 T00500024  RH  083%=      5-min Rain = 0
KBR1 240818Z 34007KT 05/02 A3006 RMK A01 T00490023  RH  083%=      5-min Rain = 0
KBR1 240819Z 33007KT 05/02 A3006 RMK A01 T00490023  RH  084%=      5-min Rain = 0
KBR1 240820Z 33007KT 05/02 A3006 RMK A01 T00490023  RH  084%=      5-min Rain = 0
KBR1 240821Z 33007KT 05/02 A3006 RMK A01 T00490023  RH  084%=      5-min Rain = 0
KBR1 240822Z 33007KT 05/02 A3006 RMK A01 T00480023  RH  084%=      5-min Rain = 0
KBR1 240823Z 33007KT 05/02 A3006 RMK A01 T00470022  RH  084%=      5-min Rain = 0
KBR1 240824Z 32006KT 05/02 A3006 RMK A01 T00470023  RH  084%=      5-min Rain = 0
KBR1 240825Z 33006KT 05/02 A3006 RMK A01 T00470022  RH  084%=      5-min Rain = 0
KBR1 240826Z 33007KT 05/02 A3006 RMK A01 T00470022  RH  084%=      5-min Rain = 0
KBR1 240827Z 33006KT 05/02 A3006 RMK A01 T00460022  RH  084%=      5-min Rain = 0
KBR1 240828Z 33006KT 05/02 A3006 RMK A01 T00460022  RH  084%=      5-min Rain = 0
KBR1 240829Z 32005KT 05/02 A3006 RMK A01 T00460022  RH  084%=      5-min Rain = 0
KBR1 240830Z 32005KT 05/02 A3006 RMK A01 T00460022  RH  084%=      5-min Rain = 0
KBR1 240831Z 32005KT 05/02 A3006 RMK A01 T00460022  RH  085%=      5-min Rain = 0
KBR1 240832Z 33005KT 05/02 A3006 RMK A01 T00450021  RH  085%=      5-min Rain = 0
KBR1 240833Z 33005KT 05/02 A3006 RMK A01 T00460022  RH  084%=      5-min Rain = 0
KBR1 240834Z 33005KT 05/02 A3006 RMK A01 T00450022  RH  085%=      5-min Rain = 0
KBR1 240835Z 33006KT 05/02 A3006 RMK A01 T00450021  RH  084%=      5-min Rain = 0
KBR1 240836Z 34006KT 05/02 A3006 RMK A01 T00450021  RH  084%=      5-min Rain = 0
KBR1 240837Z 34006KT 05/02 A3006 RMK A01 T00460021  RH  084%=      5-min Rain = 0
KBR1 240838Z 34006KT 05/02 A3006 RMK A01 T00460021  RH  084%=      5-min Rain = 0
KBR1 240839Z 34007KT 05/02 A3006 RMK A01 T00450021  RH  085%=      5-min Rain = 0
KBR1 240840Z 34007KT 05/02 A3006 RMK A01 T00450021  RH  085%=      5-min Rain = 0
KBR1 240841Z 34007KT 05/02 A3006 RMK A01 T00450021  RH  085%=      5-min Rain = 0
KBR1 240842Z 34007KT 05/02 A3006 RMK A01 T00450021  RH  085%=      5-min Rain = 0
KBR1 240843Z 34007KT 05/02 A3006 RMK A01 T00450022  RH  085%=      5-min Rain = 0
KBR1 240844Z 35007KT 04/02 A3005 RMK A01 T00440021  RH  085%=      5-min Rain = 0
KBR1 240845Z 35007KT 04/02 A3005 RMK A01 T00440022  RH  085%=      5-min Rain = 0
KBR1 240846Z 35008KT 04/02 A3005 RMK A01 T00440021  RH  085%=      5-min Rain = 0
KBR1 240847Z 35007KT 04/02 A3005 RMK A01 T00440021  RH  085%=      5-min Rain = 0
KBR1 240848Z 35007KT 04/02 A3005 RMK A01 T00440021  RH  085%=      5-min Rain = 0
KBR1 240849Z 35007KT 04/02 A3005 RMK A01 T00440021  RH  085%=      5-min Rain = 0
KBR1 240850Z 35007KT 04/02 A3005 RMK A01 T00440021  RH  085%=      5-min Rain = 0
KBR1 240851Z 35006KT 04/02 A3006 RMK A01 T00440021  RH  085%=      5-min Rain = 0
KBR1 240852Z 35007KT 04/02 A3006 RMK A01 T00440021  RH  085%=      5-min Rain = 0
KBR1 240853Z 35006KT 05/02 A3006 RMK A01 T00450021  RH  085%=      5-min Rain = 0
KBR1 240854Z 35006KT 05/02 A3006 RMK A01 T00450021  RH  084%=      5-min Rain = 0
KBR1 240855Z 35006KT 05/02 A3006 RMK A01 T00450021  RH  084%=      5-min Rain = 0
KBR1 240856Z 35006KT 05/02 A3006 RMK A01 T00450021  RH  084%=      5-min Rain = 0
KBR1 240857Z 35006KT 05/02 A3006 RMK A01 T00450021  RH  084%=      5-min Rain = 0
KBR1 240858Z 35006KT 05/02 A3005 RMK A01 T00450021  RH  084%=      5-min Rain = 0
KBR1 240859Z 35007KT 05/02 A3005 RMK A01 T00450021  RH  084%=      5-min Rain = 0
KBR1 240900Z 35007KT 05/02 A3005 RMK A01 T00450021  RH  085%=      5-min Rain = 0
KBR1 240901Z 35007KT 04/02 A3005 RMK A01 T00440021  RH  085%=      5-min Rain = 0
KBR1 240902Z 35008KT 04/02 A3005 RMK A01 T00440021  RH  085%=      5-min Rain = 0
KBR1 240903Z 35008KT 05/02 A3005 RMK A01 T00450021  RH  085%=      5-min Rain = 0
KBR1 240904Z 35008KT 04/02 A3005 RMK A01 T00440021  RH  085%=      5-min Rain = 0
KBR1 240905Z 35008KT 05/02 A3005 RMK A01 T00450021  RH  085%=      5-min Rain = 0
KBR1 240906Z 36008KT 05/02 A3005 RMK A01 T00450021  RH  085%=      5-min Rain = 0
KBR1 240907Z 36007KT 05/02 A3005 RMK A01 T00450021  RH  084%=      5-min Rain = 0
KBR1 240908Z 36008KT 05/02 A3005 RMK A01 T00450021  RH  084%=      5-min Rain = 0
KBR1 240909Z 36007KT 05/02 A3005 RMK A01 T00450021  RH  084%=      5-min Rain = 0
KBR1 240910Z 36007KT 05/02 A3005 RMK A01 T00450021  RH  084%=      5-min Rain = 0
KBR1 240911Z 36007KT 04/02 A3005 RMK A01 T00440021  RH  085%=      5-min Rain = 0
KBR1 240912Z 36007KT 04/02 A3005 RMK A01 T00440021  RH  085%=      5-min Rain = 0
KBR1 240913Z 36008KT 04/02 A3005 RMK A01 T00440021  RH  085%=      5-min Rain = 0
KBR1 240914Z 36008KT 04/02 A3005 RMK A01 T00440020  RH  085%=      5-min Rain = 0
KBR1 240915Z 36008KT 04/02 A3005 RMK A01 T00440020  RH  085%=      5-min Rain = 0
KBR1 240916Z 36008KT 04/02 A3005 RMK A01 T00430020  RH  085%=      5-min Rain = 0
KBR1 240917Z 36010KT 04/02 A3005 RMK A01 T00430021  RH  085%=      5-min Rain = 0
KBR1 240918Z 36011KT 04/02 A3005 RMK A01 T00430020  RH  085%=      5-min Rain = 0
KBR1 240919Z 36010KT 04/02 A3005 RMK A01 T00430020  RH  085%=      5-min Rain = 0
KBR1 240920Z 36010KT 04/02 A3005 RMK A01 T00430020  RH  085%=      5-min Rain = 0
KBR1 240921Z 35011KT 04/02 A3005 RMK A01 T00440020  RH  085%=      5-min Rain = 0
KBR1 240922Z 36011KT 04/02 A3005 RMK A01 T00440020  RH  085%=      5-min Rain = 0
KBR1 240923Z 00011KT 04/02 A3005 RMK A01 T00440020  RH  085%=      5-min Rain = 0
KBR1 240924Z 36010KT 04/02 A3005 RMK A01 T00430020  RH  085%=      5-min Rain = 0
KBR1 240925Z 00010KT 04/02 A3005 RMK A01 T00430020  RH  085%=      5-min Rain = 0
KBR1 240926Z 00010KT 04/02 A3005 RMK A01 T00430020  RH  085%=      5-min Rain = 0
KBR1 240927Z 00010KT 04/02 A3005 RMK A01 T00430019  RH  085%=      5-min Rain = 0
KBR1 240928Z 01009KT 04/02 A3005 RMK A01 T00430020  RH  085%=      5-min Rain = 0
KBR1 240929Z 01009KT 04/02 A3005 RMK A01 T00430019  RH  085%=      5-min Rain = 0
KBR1 240930Z 00009KT 04/02 A3005 RMK A01 T00430019  RH  084%=      5-min Rain = 0
KBR1 240931Z 01009KT 04/02 A3005 RMK A01 T00430018  RH  084%=      5-min Rain = 0
KBR1 240932Z 01010KT 04/02 A3005 RMK A01 T00430018  RH  084%=      5-min Rain = 0
KBR1 240933Z 00010KT 04/02 A3005 RMK A01 T00430019  RH  084%=      5-min Rain = 0
KBR1 240934Z 00010KT 04/02 A3005 RMK A01 T00430019  RH  084%=      5-min Rain = 0
KBR1 240935Z 01010KT 04/02 A3005 RMK A01 T00440019  RH  084%=      5-min Rain = 0
KBR1 240936Z 00010KT 04/02 A3005 RMK A01 T00440019  RH  083%=      5-min Rain = 0
KBR1 240937Z 00011KT 05/02 A3005 RMK A01 T00450019  RH  083%=      5-min Rain = 0
KBR1 240938Z 00011KT 05/02 A3005 RMK A01 T00450019  RH  083%=      5-min Rain = 0
KBR1 240939Z 00012KT 05/02 A3005 RMK A01 T00450020  RH  084%=      5-min Rain = 0
KBR1 240940Z 00012KT 05/02 A3004 RMK A01 T00450020  RH  084%=      5-min Rain = 0
KBR1 240941Z 00012KT 05/02 A3004 RMK A01 T00450020  RH  084%=      5-min Rain = 0
KBR1 240942Z 00011KT 05/02 A3004 RMK A01 T00460020  RH  083%=      5-min Rain = 0
KBR1 240943Z 00011KT 05/02 A3004 RMK A01 T00470020  RH  083%=      5-min Rain = 0
KBR1 240944Z 00011KT 05/02 A3004 RMK A01 T00470020  RH  083%=      5-min Rain = 0
KBR1 240945Z 36011KT 05/02 A3005 RMK A01 T00470020  RH  083%=      5-min Rain = 0
KBR1 240946Z 00011KT 05/02 A3005 RMK A01 T00480020  RH  082%=      5-min Rain = 0
KBR1 240947Z 00010KT 05/02 A3005 RMK A01 T00490020  RH  082%=      5-min Rain = 0
KBR1 240948Z 01009KT 05/02 A3005 RMK A01 T00490020  RH  082%=      5-min Rain = 0
KBR1 240949Z 00009KT 05/02 A3005 RMK A01 T00490020  RH  082%=      5-min Rain = 0
KBR1 240950Z 00009KT 05/02 A3005 RMK A01 T00490020  RH  081%=      5-min Rain = 0
KBR1 240951Z 00009KT 05/02 A3005 RMK A01 T00490020  RH  081%=      5-min Rain = 0
KBR1 240952Z 00010KT 05/02 A3005 RMK A01 T00500020  RH  081%=      5-min Rain = 0
KBR1 240953Z 00010KT 05/02 A3005 RMK A01 T00490020  RH  081%=      5-min Rain = 0
KBR1 240954Z 00010KT 05/02 A3005 RMK A01 T00500020  RH  081%=      5-min Rain = 0
KBR1 240955Z 00010KT 05/02 A3005 RMK A01 T00490020  RH  081%=      5-min Rain = 0
KBR1 240956Z 36011KT 05/02 A3005 RMK A01 T00490020  RH  082%=      5-min Rain = 0
KBR1 240957Z 36011KT 05/02 A3005 RMK A01 T00490021  RH  082%=      5-min Rain = 0
KBR1 240958Z 00011KT 05/02 A3005 RMK A01 T00500021  RH  082%=      5-min Rain = 0
KBR1 240959Z 00011KT 05/02 A3005 RMK A01 T00490021  RH  082%=      5-min Rain = 0
KBR1 241000Z 00011KT 05/02 A3005 RMK A01 T00500021  RH  081%=      5-min Rain = 0
KBR1 241001Z 00011KT 05/02 A3004 RMK A01 T00490020  RH  081%=      5-min Rain = 0
KBR1 241002Z 00010KT 05/02 A3004 RMK A01 T00500021  RH  082%=      5-min Rain = 0
KBR1 241003Z 00010KT 05/02 A3004 RMK A01 T00500020  RH  081%=      5-min Rain = 0
KBR1 241004Z 00010KT 05/02 A3005 RMK A01 T00490020  RH  081%=      5-min Rain = 0
KBR1 241005Z 00010KT 05/02 A3005 RMK A01 T00490020  RH  081%=      5-min Rain = 0
KBR1 241006Z 00010KT 05/02 A3005 RMK A01 T00490020  RH  081%=      5-min Rain = 0
KBR1 241007Z 00011KT 05/02 A3005 RMK A01 T00500020  RH  081%=      5-min Rain = 0
KBR1 241008Z 00010KT 05/02 A3005 RMK A01 T00500020  RH  081%=      5-min Rain = 0
KBR1 241009Z 00011KT 05/02 A3005 RMK A01 T00500020  RH  081%=      5-min Rain = 0
KBR1 241010Z 00011KT 05/02 A3005 RMK A01 T00500020  RH  081%=      5-min Rain = 0
KBR1 241011Z 01011KT 05/02 A3005 RMK A01 T00510021  RH  081%=      5-min Rain = 0
KBR1 241012Z 00012KT 05/02 A3005 RMK A01 T00500020  RH  081%=      5-min Rain = 0
KBR1 241013Z 36012KT 05/02 A3004 RMK A01 T00510021  RH  081%=      5-min Rain = 0
KBR1 241014Z 00012KT 05/02 A3004 RMK A01 T00510020  RH  081%=      5-min Rain = 0
KBR1 241015Z 00012KT 05/02 A3004 RMK A01 T00510021  RH  081%=      5-min Rain = 0
KBR1 241016Z 00012KT 05/02 A3004 RMK A01 T00520021  RH  080%=      5-min Rain = 0
KBR1 241017Z 00011KT 05/02 A3004 RMK A01 T00520021  RH  080%=      5-min Rain = 0
KBR1 241018Z 00011KT 05/02 A3005 RMK A01 T00520021  RH  080%=      5-min Rain = 0
KBR1 241019Z 00012KT 05/02 A3005 RMK A01 T00520021  RH  080%=      5-min Rain = 0
KBR1 241020Z 00011KT 05/02 A3005 RMK A01 T00520021  RH  080%=      5-min Rain = 0
KBR1 241021Z 00011KT 05/02 A3005 RMK A01 T00520021  RH  080%=      5-min Rain = 0
KBR1 241022Z 00010KT 05/02 A3005 RMK A01 T00520021  RH  081%=      5-min Rain = 0
KBR1 241023Z 00010KT 05/02 A3005 RMK A01 T00510021  RH  081%=      5-min Rain = 0
KBR1 241024Z 00011KT 05/02 A3005 RMK A01 T00510021  RH  081%=      5-min Rain = 0
KBR1 241025Z 00011KT 05/02 A3005 RMK A01 T00510020  RH  081%=      5-min Rain = 0
KBR1 241026Z 01011KT 05/02 A3005 RMK A01 T00510020  RH  081%=      5-min Rain = 0
KBR1 241027Z 00012KT 05/02 A3005 RMK A01 T00510020  RH  081%=      5-min Rain = 0
KBR1 241028Z 00012KT 05/02 A3005 RMK A01 T00510020  RH  080%=      5-min Rain = 0
KBR1 241029Z 00012KT 05/02 A3005 RMK A01 T00520020  RH  080%=      5-min Rain = 0
KBR1 241030Z 00013KT 05/02 A3005 RMK A01 T00520020  RH  080%=      5-min Rain = 0
KBR1 241031Z 00013KT 05/02 A3005 RMK A01 T00520020  RH  080%=      5-min Rain = 0
KBR1 241032Z 00012KT 05/02 A3005 RMK A01 T00520020  RH  080%=      5-min Rain = 0
KBR1 241033Z 00012KT 05/02 A3005 RMK A01 T00520020  RH  080%=      5-min Rain = 0
KBR1 241034Z 00011KT 05/02 A3005 RMK A01 T00510020  RH  080%=      5-min Rain = 0
KBR1 241035Z 00011KT 05/02 A3005 RMK A01 T00510020  RH  081%=      5-min Rain = 0
KBR1 241036Z 00011KT 05/02 A3005 RMK A01 T00500020  RH  081%=      5-min Rain = 0
KBR1 241037Z 01011KT 05/02 A3005 RMK A01 T00500020  RH  081%=      5-min Rain = 0
KBR1 241038Z 00011KT 05/02 A3005 RMK A01 T00500019  RH  080%=      5-min Rain = 0
KBR1 241039Z 01010KT 05/02 A3005 RMK A01 T00510019  RH  080%=      5-min Rain = 0
KBR1 241040Z 01011KT 05/02 A3005 RMK A01 T00500019  RH  080%=      5-min Rain = 0
KBR1 241041Z 01010KT 05/02 A3005 RMK A01 T00500019  RH  080%=      5-min Rain = 0
KBR1 241042Z 00011KT 05/02 A3005 RMK A01 T00500019  RH  080%=      5-min Rain = 0
KBR1 241043Z 00011KT 05/02 A3005 RMK A01 T00500018  RH  080%=      5-min Rain = 0
KBR1 241044Z 00011KT 05/02 A3005 RMK A01 T00500019  RH  080%=      5-min Rain = 0
KBR1 241045Z 00010KT 05/02 A3005 RMK A01 T00500019  RH  080%=      5-min Rain = 0
KBR1 241046Z 01011KT 05/02 A3005 RMK A01 T00500019  RH  080%=      5-min Rain = 0
KBR1 241047Z 00012KT 05/02 A3005 RMK A01 T00500018  RH  080%=      5-min Rain = 0
KBR1 241048Z 01011KT 05/02 A3005 RMK A01 T00500018  RH  080%=      5-min Rain = 0
KBR1 241049Z 00011KT 05/02 A3005 RMK A01 T00500018  RH  080%=      5-min Rain = 0
KBR1 241050Z 00011KT 05/02 A3005 RMK A01 T00500018  RH  080%=      5-min Rain = 0
KBR1 241051Z 00011KT 05/02 A3005 RMK A01 T00500018  RH  080%=      5-min Rain = 0
KBR1 241052Z 00010KT 05/02 A3005 RMK A01 T00500018  RH  080%=      5-min Rain = 0
KBR1 241053Z 01010KT 05/02 A3005 RMK A01 T00500018  RH  080%=      5-min Rain = 0
KBR1 241054Z 01010KT 05/02 A3005 RMK A01 T00490018  RH  080%=      5-min Rain = 0
KBR1 241055Z 01010KT 05/02 A3005 RMK A01 T00490018  RH  080%=      5-min Rain = 0
KBR1 241056Z 01011KT 05/02 A3005 RMK A01 T00490017  RH  080%=      5-min Rain = 0
KBR1 241057Z 00010KT 05/02 A3005 RMK A01 T00500017  RH  079%=      5-min Rain = 0
KBR1 241058Z 00010KT 05/02 A3005 RMK A01 T00500017  RH  079%=      5-min Rain = 0
KBR1 241059Z 00011KT 05/02 A3005 RMK A01 T00500017  RH  080%=      5-min Rain = 0
KBR1 241100Z 00012KT 05/02 A3005 RMK A01 T00490018  RH  080%=      5-min Rain = 0
KBR1 241101Z 00011KT 05/02 A3005 RMK A01 T00490017  RH  080%=      5-min Rain = 0
KBR1 241102Z 00012KT 05/02 A3005 RMK A01 T00490017  RH  080%=      5-min Rain = 0
KBR1 241103Z 00011KT 05/02 A3005 RMK A01 T00500017  RH  079%=      5-min Rain = 0
KBR1 241104Z 00011KT 05/02 A3005 RMK A01 T00500017  RH  079%=      5-min Rain = 0
KBR1 241105Z 36010KT 05/02 A3005 RMK A01 T00500017  RH  079%=      5-min Rain = 0
KBR1 241106Z 00010KT 05/02 A3005 RMK A01 T00490017  RH  080%=      5-min Rain = 0
KBR1 241107Z 00011KT 05/02 A3005 RMK A01 T00490017  RH  079%=      5-min Rain = 0
KBR1 241108Z 00011KT 05/02 A3005 RMK A01 T00500017  RH  079%=      5-min Rain = 0
KBR1 241109Z 00010KT 05/02 A3005 RMK A01 T00490017  RH  079%=      5-min Rain = 0
KBR1 241110Z 01011KT 05/02 A3005 RMK A01 T00490017  RH  080%=      5-min Rain = 0
KBR1 241111Z 36010KT 05/02 A3005 RMK A01 T00490017  RH  080%=      5-min Rain = 0
KBR1 241112Z 00011KT 05/02 A3005 RMK A01 T00490017  RH  080%=      5-min Rain = 0
KBR1 241113Z 00011KT 05/02 A3005 RMK A01 T00490016  RH  079%=      5-min Rain = 0
KBR1 241114Z 00011KT 05/02 A3005 RMK A01 T00500017  RH  079%=      5-min Rain = 0
KBR1 241115Z 00010KT 05/02 A3005 RMK A01 T00490016  RH  079%=      5-min Rain = 0
KBR1 241116Z 00011KT 05/02 A3006 RMK A01 T00490017  RH  079%=      5-min Rain = 0
KBR1 241117Z 00010KT 05/02 A3006 RMK A01 T00490017  RH  079%=      5-min Rain = 0
KBR1 241118Z 00010KT 05/02 A3006 RMK A01 T00490016  RH  079%=      5-min Rain = 0
KBR1 241119Z 00009KT 05/02 A3006 RMK A01 T00490016  RH  079%=      5-min Rain = 0
KBR1 241120Z 00009KT 05/02 A3006 RMK A01 T00490016  RH  079%=      5-min Rain = 0
KBR1 241121Z 00009KT 05/02 A3006 RMK A01 T00490016  RH  079%=      5-min Rain = 0
KBR1 241122Z 00009KT 05/02 A3006 RMK A01 T00490016  RH  079%=      5-min Rain = 0
KBR1 241123Z 00010KT 05/02 A3006 RMK A01 T00490016  RH  079%=      5-min Rain = 0
KBR1 241124Z 00009KT 05/02 A3006 RMK A01 T00490016  RH  079%=      5-min Rain = 0
KBR1 241125Z 36010KT 05/02 A3006 RMK A01 T00490016  RH  079%=      5-min Rain = 0
KBR1 241126Z 00010KT 05/02 A3006 RMK A01 T00490016  RH  079%=      5-min Rain = 0
KBR1 241127Z 00010KT 05/02 A3006 RMK A01 T00480016  RH  079%=      5-min Rain = 0
KBR1 241128Z 00011KT 05/02 A3006 RMK A01 T00490016  RH  079%=      5-min Rain = 0
KBR1 241129Z 00010KT 05/02 A3006 RMK A01 T00490015  RH  079%=      5-min Rain = 0
KBR1 241130Z 00010KT 05/02 A3006 RMK A01 T00490015  RH  079%=      5-min Rain = 0
KBR1 241131Z 00010KT 05/02 A3006 RMK A01 T00490016  RH  079%=      5-min Rain = 0
KBR1 241132Z 36010KT 05/02 A3006 RMK A01 T00480015  RH  079%=      5-min Rain = 0
KBR1 241133Z 36010KT 05/02 A3006 RMK A01 T00480015  RH  079%=      5-min Rain = 0
KBR1 241134Z 00009KT 05/02 A3006 RMK A01 T00490015  RH  079%=      5-min Rain = 0
KBR1 241135Z 01010KT 05/02 A3006 RMK A01 T00480015  RH  079%=      5-min Rain = 0
KBR1 241136Z 01009KT 05/02 A3006 RMK A01 T00480015  RH  079%=      5-min Rain = 0
KBR1 241137Z 01010KT 05/02 A3006 RMK A01 T00470015  RH  079%=      5-min Rain = 0
KBR1 241138Z 01010KT 05/01 A3006 RMK A01 T00470014  RH  080%=      5-min Rain = 0
KBR1 241139Z 00010KT 05/02 A3006 RMK A01 T00460015  RH  080%=      5-min Rain = 0
KBR1 241140Z 00010KT 05/02 A3007 RMK A01 T00460015  RH  080%=      5-min Rain = 0
KBR1 241141Z 00010KT 05/02 A3007 RMK A01 T00460015  RH  080%=      5-min Rain = 0
KBR1 241142Z 00009KT 05/02 A3007 RMK A01 T00460015  RH  080%=      5-min Rain = 0
KBR1 241143Z 00009KT 05/01 A3007 RMK A01 T00460014  RH  080%=      5-min Rain = 0
KBR1 241144Z 00010KT 05/02 A3007 RMK A01 T00460015  RH  080%=      5-min Rain = 0
KBR1 241145Z 00009KT 05/01 A3007 RMK A01 T00460014  RH  080%=      5-min Rain = 0
KBR1 241146Z 00009KT 05/01 A3007 RMK A01 T00460014  RH  080%=      5-min Rain = 0
KBR1 241147Z 00009KT 05/02 A3007 RMK A01 T00460015  RH  080%=      5-min Rain = 0
KBR1 241148Z 00008KT 05/01 A3007 RMK A01 T00460014  RH  080%=      5-min Rain = 0
KBR1 241149Z 00009KT 05/01 A3007 RMK A01 T00450014  RH  080%=      5-min Rain = 0
KBR1 241150Z 00009KT 05/01 A3007 RMK A01 T00450014  RH  081%=      5-min Rain = 0
KBR1 241151Z 00009KT 05/02 A3007 RMK A01 T00450015  RH  081%=      5-min Rain = 0
KBR1 241152Z 01010KT 05/02 A3007 RMK A01 T00450015  RH  081%=      5-min Rain = 0
KBR1 241153Z 01010KT 05/02 A3007 RMK A01 T00450015  RH  081%=      5-min Rain = 0
KBR1 241154Z 01010KT 04/01 A3007 RMK A01 T00440014  RH  081%=      5-min Rain = 0
KBR1 241155Z 00010KT 04/02 A3006 RMK A01 T00440015  RH  081%=      5-min Rain = 0
KBR1 241156Z 01010KT 04/01 A3006 RMK A01 T00440014  RH  081%=      5-min Rain = 0
KBR1 241157Z 01009KT 04/01 A3007 RMK A01 T00440014  RH  081%=      5-min Rain = 0
KBR1 241158Z 00010KT 04/02 A3007 RMK A01 T00440015  RH  081%=      5-min Rain = 0
KBR1 241159Z 00010KT 04/01 A3006 RMK A01 T00440014  RH  081%=      5-min Rain = 0
KBR1 241200Z 00010KT 04/01 A3006 RMK A01 T00440014  RH  081%=      5-min Rain = 0
KBR1 241201Z 00010KT 04/01 A3006 RMK A01 T00430014  RH  081%=      5-min Rain = 0
KBR1 241202Z 01010KT 04/02 A3006 RMK A01 T00430015  RH  082%=      5-min Rain = 0
KBR1 241203Z 01010KT 04/01 A3006 RMK A01 T00430014  RH  082%=      5-min Rain = 0
KBR1 241204Z 01010KT 04/01 A3006 RMK A01 T00430014  RH  082%=      5-min Rain = 0
KBR1 241205Z 00011KT 04/01 A3006 RMK A01 T00420014  RH  082%=      5-min Rain = 0
KBR1 241206Z 00011KT 04/01 A3006 RMK A01 T00430014  RH  082%=      5-min Rain = 0
KBR1 241207Z 00011KT 04/01 A3006 RMK A01 T00430014  RH  081%=      5-min Rain = 0
KBR1 241208Z 00011KT 04/01 A3006 RMK A01 T00430014  RH  081%=      5-min Rain = 0
KBR1 241209Z 00011KT 04/01 A3006 RMK A01 T00430014  RH  081%=      5-min Rain = 0
KBR1 241210Z 00011KT 04/01 A3007 RMK A01 T00440014  RH  081%=      5-min Rain = 0
KBR1 241211Z 01011KT 04/01 A3007 RMK A01 T00440014  RH  081%=      5-min Rain = 0
KBR1 241212Z 00011KT 04/01 A3007 RMK A01 T00440014  RH  081%=      5-min Rain = 0
KBR1 241213Z 00011KT 04/01 A3007 RMK A01 T00440014  RH  081%=      5-min Rain = 0
KBR1 241214Z 00011KT 04/01 A3007 RMK A01 T00440014  RH  080%=      5-min Rain = 0
KBR1 241215Z 00011KT 05/01 A3007 RMK A01 T00450014  RH  080%=      5-min Rain = 0
KBR1 241216Z 00011KT 04/01 A3007 RMK A01 T00440014  RH  081%=      5-min Rain = 0
KBR1 241217Z 00010KT 04/01 A3007 RMK A01 T00440014  RH  081%=      5-min Rain = 0
KBR1 241218Z 00010KT 04/01 A3007 RMK A01 T00440014  RH  081%=      5-min Rain = 0
KBR1 241219Z 01010KT 04/01 A3007 RMK A01 T00440014  RH  081%=      5-min Rain = 0
KBR1 241220Z 01010KT 04/01 A3007 RMK A01 T00440014  RH  081%=      5-min Rain = 0
KBR1 241221Z 01010KT 04/01 A3007 RMK A01 T00430013  RH  081%=      5-min Rain = 0
KBR1 241222Z 01010KT 04/01 A3007 RMK A01 T00440013  RH  081%=      5-min Rain = 0
KBR1 241223Z 01010KT 04/01 A3007 RMK A01 T00430013  RH  081%=      5-min Rain = 0
KBR1 241224Z 01011KT 04/01 A3007 RMK A01 T00440013  RH  080%=      5-min Rain = 0
KBR1 241225Z 01010KT 04/01 A3007 RMK A01 T00440013  RH  080%=      5-min Rain = 0
KBR1 241226Z 01011KT 04/01 A3007 RMK A01 T00440013  RH  080%=      5-min Rain = 0
KBR1 241227Z 01010KT 04/01 A3007 RMK A01 T00440013  RH  081%=      5-min Rain = 0
KBR1 241228Z 01011KT 04/01 A3007 RMK A01 T00440013  RH  081%=      5-min Rain = 0
KBR1 241229Z 01011KT 04/01 A3006 RMK A01 T00440013  RH  080%=      5-min Rain = 0
KBR1 241230Z 01011KT 04/01 A3006 RMK A01 T00440013  RH  080%=      5-min Rain = 0
KBR1 241231Z 01011KT 04/01 A3006 RMK A01 T00440013  RH  080%=      5-min Rain = 0
KBR1 241232Z 01011KT 04/01 A3006 RMK A01 T00440013  RH  081%=      5-min Rain = 0
KBR1 241233Z 00011KT 04/01 A3007 RMK A01 T00440014  RH  081%=      5-min Rain = 0
KBR1 241234Z 00011KT 04/01 A3007 RMK A01 T00430013  RH  081%=      5-min Rain = 0
KBR1 241235Z 00010KT 04/01 A3007 RMK A01 T00430013  RH  081%=      5-min Rain = 0
KBR1 241236Z 00010KT 04/01 A3007 RMK A01 T00440013  RH  081%=      5-min Rain = 0
KBR1 241237Z 00010KT 04/01 A3007 RMK A01 T00440013  RH  081%=      5-min Rain = 0
KBR1 241238Z 00010KT 04/01 A3007 RMK A01 T00440014  RH  081%=      5-min Rain = 0
KBR1 241239Z 00010KT 04/01 A3007 RMK A01 T00440014  RH  081%=      5-min Rain = 0
KBR1 241240Z 00009KT 04/01 A3007 RMK A01 T00440014  RH  081%=      5-min Rain = 0
KBR1 241241Z 00009KT 04/01 A3007 RMK A01 T00440014  RH  081%=      5-min Rain = 0
KBR1 241242Z 00010KT 04/01 A3007 RMK A01 T00430013  RH  081%=      5-min Rain = 0
KBR1 241243Z 00009KT 04/01 A3007 RMK A01 T00430013  RH  081%=      5-min Rain = 0
KBR1 241244Z 00009KT 04/01 A3007 RMK A01 T00430013  RH  081%=      5-min Rain = 0
KBR1 241245Z 00009KT 04/01 A3007 RMK A01 T00430013  RH  081%=      5-min Rain = 0
KBR1 241246Z 01009KT 04/01 A3007 RMK A01 T00430013  RH  081%=      5-min Rain = 0
KBR1 241247Z 01009KT 04/01 A3008 RMK A01 T00440014  RH  081%=      5-min Rain = 0
KBR1 241248Z 00010KT 04/01 A3008 RMK A01 T00430014  RH  081%=      5-min Rain = 0
KBR1 241249Z 00009KT 04/01 A3008 RMK A01 T00440014  RH  081%=      5-min Rain = 0
KBR1 241250Z 01010KT 04/01 A3008 RMK A01 T00440014  RH  081%=      5-min Rain = 0
KBR1 241251Z 00009KT 05/01 A3008 RMK A01 T00450013  RH  080%=      5-min Rain = 0
KBR1 241252Z 00010KT 05/01 A3008 RMK A01 T00450013  RH  080%=      5-min Rain = 0
KBR1 241253Z 00009KT 05/01 A3008 RMK A01 T00460014  RH  080%=      5-min Rain = 0
KBR1 241254Z 36010KT 05/01 A3008 RMK A01 T00450014  RH  080%=      5-min Rain = 0
KBR1 241255Z 36009KT 05/01 A3008 RMK A01 T00450013  RH  080%=      5-min Rain = 0
KBR1 241256Z 00008KT 05/01 A3008 RMK A01 T00450014  RH  080%=      5-min Rain = 0
KBR1 241257Z 36009KT 05/01 A3008 RMK A01 T00450014  RH  080%=      5-min Rain = 0
KBR1 241258Z 36009KT 05/01 A3008 RMK A01 T00450014  RH  080%=      5-min Rain = 0
KBR1 241259Z 36009KT 05/01 A3008 RMK A01 T00460014  RH  080%=      5-min Rain = 0
KBR1 241300Z 00008KT 05/01 A3008 RMK A01 T00470014  RH  079%=      5-min Rain = 0
KBR1 241301Z 00009KT 05/01 A3009 RMK A01 T00470014  RH  079%=      5-min Rain = 0
KBR1 241302Z 00008KT 05/01 A3009 RMK A01 T00470014  RH  079%=      5-min Rain = 0
KBR1 241303Z 00008KT 05/01 A3009 RMK A01 T00480014  RH  079%=      5-min Rain = 0
KBR1 241304Z 36008KT 05/01 A3009 RMK A01 T00480014  RH  079%=      5-min Rain = 0
KBR1 241305Z 00008KT 05/01 A3009 RMK A01 T00480014  RH  079%=      5-min Rain = 0
KBR1 241306Z 00009KT 05/01 A3009 RMK A01 T00480014  RH  079%=      5-min Rain = 0
KBR1 241307Z 00009KT 05/02 A3009 RMK A01 T00480015  RH  079%=      5-min Rain = 0
KBR1 241308Z 36008KT 05/02 A3009 RMK A01 T00480015  RH  079%=      5-min Rain = 0
KBR1 241309Z 36009KT 05/02 A3009 RMK A01 T00480015  RH  079%=      5-min Rain = 0
KBR1 241310Z 00008KT 05/02 A3009 RMK A01 T00480015  RH  079%=      5-min Rain = 0
KBR1 241311Z 36008KT 05/02 A3009 RMK A01 T00480015  RH  079%=      5-min Rain = 0
KBR1 241312Z 36007KT 05/02 A3009 RMK A01 T00490015  RH  079%=      5-min Rain = 0
KBR1 241313Z 36007KT 05/02 A3009 RMK A01 T00490015  RH  079%=      5-min Rain = 0
KBR1 241314Z 36007KT 05/02 A3009 RMK A01 T00490016  RH  079%=      5-min Rain = 0
KBR1 241315Z 36007KT 05/02 A3009 RMK A01 T00490015  RH  079%=      5-min Rain = 0
KBR1 241316Z 00007KT 05/02 A3009 RMK A01 T00500016  RH  079%=      5-min Rain = 0
KBR1 241317Z 00006KT 05/02 A3009 RMK A01 T00490016  RH  079%=      5-min Rain = 0
KBR1 241318Z 36005KT 05/02 A3009 RMK A01 T00500016  RH  079%=      5-min Rain = 0
KBR1 241319Z 36005KT 05/02 A3009 RMK A01 T00500016  RH  079%=      5-min Rain = 0
KBR1 241320Z 35004KT 05/02 A3009 RMK A01 T00500016  RH  079%=      5-min Rain = 0
KBR1 241321Z 34004KT 05/02 A3009 RMK A01 T00510017  RH  079%=      5-min Rain = 0
KBR1 241322Z 33004KT 05/02 A3009 RMK A01 T00510016  RH  078%=      5-min Rain = 0
KBR1 241323Z 32003KT 05/02 A3009 RMK A01 T00510016  RH  078%=      5-min Rain = 0
KBR1 241324Z 31002KT 05/02 A3009 RMK A01 T00510016  RH  078%=      5-min Rain = 0
KBR1 241325Z 29001KT 05/02 A3009 RMK A01 T00510016  RH  078%=      5-min Rain = 0
KBR1 241326Z 21002KT 05/02 A3009 RMK A01 T00510017  RH  079%=      5-min Rain = 0
KBR1 241327Z 18003KT 05/02 A301 RMK A01 T00490016  RH  079%=      5-min Rain = 0
KBR1 241328Z 16004KT 05/02 A301 RMK A01 T00470016  RH  080%=      5-min Rain = 0
KBR1 241329Z 16005KT 05/02 A301 RMK A01 T00460016  RH  081%=      5-min Rain = 0
KBR1 241330Z 17005KT 05/02 A301 RMK A01 T00450015  RH  081%=      5-min Rain = 0
KBR1 241331Z 17006KT 04/02 A301 RMK A01 T00440016  RH  082%=      5-min Rain = 0
KBR1 241332Z 17005KT 05/02 A301 RMK A01 T00450016  RH  082%=      5-min Rain = 0
KBR1 241333Z 17005KT 05/02 A301 RMK A01 T00450017  RH  082%=      5-min Rain = 0
KBR1 241334Z 17004KT 05/02 A301 RMK A01 T00450017  RH  082%=      5-min Rain = 0
KBR1 241335Z 18003KT 05/02 A301 RMK A01 T00470018  RH  082%=      5-min Rain = 0
KBR1 241336Z 15001KT 05/02 A301 RMK A01 T00480018  RH  081%=      5-min Rain = 0
KBR1 241337Z 13001KT 05/02 A301 RMK A01 T00490017  RH  080%=      5-min Rain = 0
KBR1 241338Z 09001KT 05/02 A301 RMK A01 T00500016  RH  078%=      5-min Rain = 0
KBR1 241339Z 07001KT 05/02 A301 RMK A01 T00510016  RH  078%=      5-min Rain = 0
KBR1 241340Z 05001KT 05/02 A301 RMK A01 T00520015  RH  077%=      5-min Rain = 0
KBR1 241341Z 06002KT 05/02 A301 RMK A01 T00530016  RH  077%=      5-min Rain = 0
KBR1 241342Z 07002KT 05/02 A301 RMK A01 T00530016  RH  077%=      5-min Rain = 0
KBR1 241343Z 06002KT 05/02 A301 RMK A01 T00540016  RH  076%=      5-min Rain = 0
KBR1 241344Z 05001KT 06/02 A3011 RMK A01 T00550016  RH  076%=      5-min Rain = 0
KBR1 241345Z 08001KT 06/02 A3011 RMK A01 T00550016  RH  076%=      5-min Rain = 0
KBR1 241346Z 10001KT 06/02 A3011 RMK A01 T00550017  RH  076%=      5-min Rain = 0
KBR1 241347Z 12000KT 06/02 A3011 RMK A01 T00560017  RH  076%=      5-min Rain = 0
KBR1 241348Z 14001KT 06/02 A3011 RMK A01 T00570017  RH  076%=      5-min Rain = 0
KBR1 241349Z 13001KT 06/02 A3011 RMK A01 T00570017  RH  075%=      5-min Rain = 0
KBR1 241350Z 15003KT 06/02 A3011 RMK A01 T00580019  RH  076%=      5-min Rain = 0
KBR1 241351Z 16003KT 06/02 A3011 RMK A01 T00580018  RH  076%=      5-min Rain = 0
KBR1 241352Z 17003KT 06/02 A3011 RMK A01 T00570019  RH  076%=      5-min Rain = 0
KBR1 241353Z 17004KT 06/02 A3011 RMK A01 T00570019  RH  077%=      5-min Rain = 0
KBR1 241354Z 17003KT 06/02 A3011 RMK A01 T00570020  RH  077%=      5-min Rain = 0
KBR1 241355Z 18002KT 06/02 A3011 RMK A01 T00570018  RH  076%=      5-min Rain = 0
KBR1 241356Z 18002KT 06/02 A3011 RMK A01 T00570019  RH  077%=      5-min Rain = 0
KBR1 241357Z 19002KT 06/02 A3011 RMK A01 T00580020  RH  077%=      5-min Rain = 0
KBR1 241358Z 20002KT 06/02 A3011 RMK A01 T00580020  RH  076%=      5-min Rain = 0
KBR1 241359Z 20002KT 06/02 A3011 RMK A01 T00580019  RH  076%=      5-min Rain = 0
KBR1 241400Z 20002KT 06/02 A3011 RMK A01 T00580020  RH  076%=      5-min Rain = 0
KBR1 241401Z 20002KT 06/02 A3011 RMK A01 T00580021  RH  077%=      5-min Rain = 0
KBR1 241402Z 20002KT 06/02 A3011 RMK A01 T00580022  RH  077%=      5-min Rain = 0
KBR1 241403Z 20002KT 06/02 A3011 RMK A01 T00580020  RH  077%=      5-min Rain = 0
KBR1 241404Z 20003KT 06/02 A3011 RMK A01 T00590022  RH  077%=      5-min Rain = 0
KBR1 241405Z 20004KT 06/02 A3011 RMK A01 T00590022  RH  077%=      5-min Rain = 0
KBR1 241406Z 19003KT 06/03 A3011 RMK A01 T00580025  RH  079%=      5-min Rain = 0
KBR1 241407Z 19003KT 06/03 A3011 RMK A01 T00580026  RH  080%=      5-min Rain = 0
KBR1 241408Z 19002KT 06/03 A3011 RMK A01 T00580025  RH  079%=      5-min Rain = 0
KBR1 241409Z 16003KT 06/02 A3011 RMK A01 T00580023  RH  078%=      5-min Rain = 0
KBR1 241410Z 17002KT 06/02 A3011 RMK A01 T00580020  RH  077%=      5-min Rain = 0
KBR1 241411Z 18002KT 06/02 A3011 RMK A01 T00590020  RH  076%=      5-min Rain = 0
KBR1 241412Z 18001KT 06/02 A3011 RMK A01 T00580019  RH  076%=      5-min Rain = 0
KBR1 241413Z 17000KT 06/02 A3011 RMK A01 T00590018  RH  075%=      5-min Rain = 0
KBR1 241414Z 17000KT 06/02 A3011 RMK A01 T00590019  RH  075%=      5-min Rain = 0
KBR1 241415Z 19000KT 06/02 A3011 RMK A01 T00590020  RH  076%=      5-min Rain = 0
KBR1 241416Z 19001KT 06/02 A3011 RMK A01 T00600021  RH  076%=      5-min Rain = 0
KBR1 241417Z 20001KT 06/02 A3011 RMK A01 T00590018  RH  075%=      5-min Rain = 0
KBR1 241418Z 20001KT 06/02 A3011 RMK A01 T00600019  RH  075%=      5-min Rain = 0
KBR1 241419Z 20001KT 06/02 A3011 RMK A01 T00600021  RH  076%=      5-min Rain = 0
KBR1 241420Z 20001KT 06/02 A3012 RMK A01 T00610022  RH  076%=      5-min Rain = 0
KBR1 241421Z 22001KT 06/02 A3012 RMK A01 T00620024  RH  077%=      5-min Rain = 0
KBR1 241422Z 22002KT 06/02 A3012 RMK A01 T00620022  RH  076%=      5-min Rain = 0
KBR1 241423Z 22002KT 06/02 A3012 RMK A01 T00630023  RH  076%=      5-min Rain = 0
KBR1 241424Z 22002KT 06/02 A3012 RMK A01 T00630023  RH  075%=      5-min Rain = 0
KBR1 241425Z 22002KT 06/02 A3012 RMK A01 T00630020  RH  074%=      5-min Rain = 0
KBR1 241426Z 21001KT 06/02 A3011 RMK A01 T00630019  RH  073%=      5-min Rain = 0
KBR1 241427Z 22002KT 06/02 A3011 RMK A01 T00630021  RH  074%=      5-min Rain = 0
KBR1 241428Z 23002KT 06/03 A3011 RMK A01 T00640026  RH  077%=      5-min Rain = 0
KBR1 241429Z 23002KT 06/03 A3011 RMK A01 T00630025  RH  077%=      5-min Rain = 0
KBR1 241430Z 24001KT 06/03 A3011 RMK A01 T00630025  RH  077%=      5-min Rain = 0
KBR1 241431Z 24001KT 06/03 A3011 RMK A01 T00630026  RH  077%=      5-min Rain = 0
KBR1 241432Z 24001KT 06/03 A3011 RMK A01 T00630025  RH  077%=      5-min Rain = 0
KBR1 241433Z 24000KT 06/03 A3011 RMK A01 T00630025  RH  077%=      5-min Rain = 0
KBR1 241434Z 00000KT 06/02 A3011 RMK A01 T00630023  RH  076%=      5-min Rain = 0
KBR1 241435Z 27001KT 06/02 A3011 RMK A01 T00630023  RH  075%=      5-min Rain = 0
KBR1 241436Z 26001KT 06/02 A3011 RMK A01 T00630024  RH  076%=      5-min Rain = 0
KBR1 241437Z 27001KT 06/02 A3011 RMK A01 T00640023  RH  075%=      5-min Rain = 0
KBR1 241438Z 26001KT 06/02 A3012 RMK A01 T00640022  RH  074%=      5-min Rain = 0
KBR1 241439Z 26001KT 07/03 A3012 RMK A01 T00650025  RH  076%=      5-min Rain = 0
KBR1 241440Z 23001KT 07/02 A3012 RMK A01 T00660022  RH  074%=      5-min Rain = 0
KBR1 241441Z 22001KT 07/02 A3012 RMK A01 T00670022  RH  073%=      5-min Rain = 0
KBR1 241442Z 23001KT 07/02 A3012 RMK A01 T00680023  RH  073%=      5-min Rain = 0
KBR1 241443Z 23000KT 07/02 A3012 RMK A01 T00680024  RH  073%=      5-min Rain = 0
KBR1 241444Z 24000KT 07/02 A3012 RMK A01 T00690023  RH  072%=      5-min Rain = 0
KBR1 241445Z 25001KT 07/02 A3012 RMK A01 T00700024  RH  072%=      5-min Rain = 0
KBR1 241446Z 26000KT 07/03 A3012 RMK A01 T00710026  RH  073%=      5-min Rain = 0
KBR1 241447Z 26000KT 07/02 A3012 RMK A01 T00710024  RH  072%=      5-min Rain = 0
KBR1 241448Z 21000KT 07/02 A3011 RMK A01 T00710024  RH  072%=      5-min Rain = 0
KBR1 241449Z 19001KT 07/02 A3011 RMK A01 T00710024  RH  072%=      5-min Rain = 0
KBR1 241450Z 18001KT 07/02 A3011 RMK A01 T00720024  RH  071%=      5-min Rain = 0
KBR1 241451Z 20001KT 07/02 A3011 RMK A01 T00720023  RH  071%=      5-min Rain = 0
KBR1 241452Z 21000KT 07/02 A3011 RMK A01 T00720023  RH  071%=      5-min Rain = 0
KBR1 241453Z 00000KT 07/02 A3011 RMK A01 T00730023  RH  070%=      5-min Rain = 0
KBR1 241454Z 00000KT 07/02 A3012 RMK A01 T00740022  RH  069%=      5-min Rain = 0
KBR1 241455Z 00000KT 08/02 A3012 RMK A01 T00760024  RH  070%=      5-min Rain = 0
KBR1 241456Z 00000KT 08/03 A3012 RMK A01 T00770025  RH  070%=      5-min Rain = 0
KBR1 241457Z 00000KT 08/03 A3012 RMK A01 T00770026  RH  070%=      5-min Rain = 0
KBR1 241458Z 18000KT 08/03 A3012 RMK A01 T00770025  RH  070%=      5-min Rain = 0
KBR1 241459Z 19001KT 08/03 A3012 RMK A01 T00760027  RH  071%=      5-min Rain = 0
KBR1 241500Z 19002KT 08/03 A3012 RMK A01 T00770027  RH  071%=      5-min Rain = 0
KBR1 241501Z 19002KT 08/03 A3012 RMK A01 T00760028  RH  071%=      5-min Rain = 0
KBR1 241502Z 19002KT 08/03 A3012 RMK A01 T00770027  RH  071%=      5-min Rain = 0
KBR1 241503Z 21001KT 08/03 A3012 RMK A01 T00770028  RH  071%=      5-min Rain = 0
KBR1 241504Z 21001KT 08/03 A3012 RMK A01 T00780028  RH  071%=      5-min Rain = 0
KBR1 241505Z 18001KT 08/03 A3012 RMK A01 T00780025  RH  069%=      5-min Rain = 0
KBR1 241506Z 17001KT 08/03 A3012 RMK A01 T00780026  RH  070%=      5-min Rain = 0
KBR1 241507Z 17001KT 08/03 A3012 RMK A01 T00780025  RH  069%=      5-min Rain = 0
KBR1 241508Z 16001KT 08/03 A3012 RMK A01 T00790025  RH  069%=      5-min Rain = 0
KBR1 241509Z 18001KT 08/03 A3012 RMK A01 T00790027  RH  069%=      5-min Rain = 0
KBR1 241510Z 18001KT 08/03 A3012 RMK A01 T00790026  RH  069%=      5-min Rain = 0
KBR1 241511Z 20001KT 08/03 A3012 RMK A01 T00800027  RH  069%=      5-min Rain = 0
KBR1 241512Z 22001KT 08/03 A3012 RMK A01 T00810026  RH  068%=      5-min Rain = 0
KBR1 241513Z 23001KT 08/03 A3012 RMK A01 T00820026  RH  068%=      5-min Rain = 0
KBR1 241514Z 22000KT 08/03 A3012 RMK A01 T00830030  RH  070%=      5-min Rain = 0
KBR1 241515Z 18000KT 08/03 A3012 RMK A01 T00840028  RH  068%=      5-min Rain = 0
KBR1 241516Z 00000KT 08/03 A3012 RMK A01 T00840026  RH  067%=      5-min Rain = 0
KBR1 241517Z 00000KT 08/03 A3012 RMK A01 T00840027  RH  067%=      5-min Rain = 0
KBR1 241518Z 19001KT 09/03 A3012 RMK A01 T00860028  RH  067%=      5-min Rain = 0
KBR1 241519Z 18000KT 09/03 A3012 RMK A01 T00860030  RH  068%=      5-min Rain = 0
KBR1 241520Z 19001KT 09/03 A3012 RMK A01 T00880031  RH  067%=      5-min Rain = 0
KBR1 241521Z 18001KT 09/03 A3012 RMK A01 T00870027  RH  066%=      5-min Rain = 0
KBR1 241522Z 14001KT 09/03 A3012 RMK A01 T00870026  RH  066%=      5-min Rain = 0
KBR1 241523Z 15000KT 09/03 A3012 RMK A01 T00860026  RH  066%=      5-min Rain = 0
KBR1 241524Z 12001KT 09/03 A3012 RMK A01 T00860025  RH  065%=      5-min Rain = 0
KBR1 241525Z 12003KT 09/03 A3012 RMK A01 T00860027  RH  066%=      5-min Rain = 0
KBR1 241526Z 10002KT 09/03 A3012 RMK A01 T00860026  RH  066%=      5-min Rain = 0
KBR1 241527Z 12001KT 09/02 A3012 RMK A01 T00880023  RH  064%=      5-min Rain = 0
KBR1 241528Z 15001KT 09/03 A3012 RMK A01 T00890027  RH  065%=      5-min Rain = 0
KBR1 241529Z 00000KT 09/03 A3012 RMK A01 T00900027  RH  065%=      5-min Rain = 0
KBR1 241530Z 12002KT 09/03 A3012 RMK A01 T00910028  RH  065%=      5-min Rain = 0
KBR1 241531Z 12002KT 09/03 A3012 RMK A01 T00920026  RH  063%=      5-min Rain = 0
KBR1 241532Z 10001KT 09/03 A3013 RMK A01 T00920026  RH  063%=      5-min Rain = 0
KBR1 241533Z 05002KT 09/03 A3013 RMK A01 T00940030  RH  064%=      5-min Rain = 0
KBR1 241534Z 06002KT 10/02 A3013 RMK A01 T00950024  RH  061%=      5-min Rain = 0
KBR1 241535Z 05003KT 10/03 A3013 RMK A01 T00960025  RH  061%=      5-min Rain = 0
KBR1 241536Z 05003KT 10/02 A3013 RMK A01 T00970023  RH  060%=      5-min Rain = 0
KBR1 241537Z 05004KT 10/02 A3013 RMK A01 T00970020  RH  059%=      5-min Rain = 0
KBR1 241538Z 06004KT 10/02 A3013 RMK A01 T00960019  RH  058%=      5-min Rain = 0
KBR1 241539Z 07003KT 10/02 A3013 RMK A01 T00950019  RH  059%=      5-min Rain = 0
KBR1 241540Z 07004KT 10/02 A3013 RMK A01 T00950021  RH  060%=      5-min Rain = 0
KBR1 241541Z 06004KT 10/02 A3013 RMK A01 T00950021  RH  060%=      5-min Rain = 0
KBR1 241542Z 05003KT 10/02 A3013 RMK A01 T00950022  RH  060%=      5-min Rain = 0
KBR1 241543Z 05003KT 10/02 A3013 RMK A01 T00950023  RH  061%=      5-min Rain = 0
KBR1 241544Z 06002KT 10/02 A3013 RMK A01 T00950021  RH  060%=      5-min Rain = 0
KBR1 241545Z 06002KT 10/02 A3013 RMK A01 T00960023  RH  060%=      5-min Rain = 0
KBR1 241546Z 03002KT 10/02 A3013 RMK A01 T00970020  RH  059%=      5-min Rain = 0
KBR1 241547Z 06003KT 10/02 A3013 RMK A01 T00970021  RH  059%=      5-min Rain = 0
KBR1 241548Z 07003KT 10/02 A3013 RMK A01 T00980023  RH  060%=      5-min Rain = 0
KBR1 241549Z 07002KT 10/02 A3013 RMK A01 T00980023  RH  059%=      5-min Rain = 0
KBR1 241550Z 13003KT 10/02 A3013 RMK A01 T00980022  RH  059%=      5-min Rain = 0
KBR1 241551Z 16004KT 10/03 A3013 RMK A01 T00980031  RH  063%=      5-min Rain = 0
KBR1 241552Z 17003KT 10/03 A3013 RMK A01 T00970030  RH  063%=      5-min Rain = 0
KBR1 241553Z 21003KT 10/03 A3013 RMK A01 T00960031  RH  064%=      5-min Rain = 0
KBR1 241554Z 22003KT 10/03 A3013 RMK A01 T00950029  RH  063%=      5-min Rain = 0
KBR1 241555Z 20002KT 09/03 A3013 RMK A01 T00940028  RH  063%=      5-min Rain = 0
KBR1 241556Z 20002KT 09/03 A3013 RMK A01 T00930028  RH  064%=      5-min Rain = 0
KBR1 241557Z 20001KT 09/03 A3013 RMK A01 T00940028  RH  064%=      5-min Rain = 0
KBR1 241558Z 21002KT 09/03 A3013 RMK A01 T00940028  RH  063%=      5-min Rain = 0
KBR1 241559Z 21003KT 09/03 A3013 RMK A01 T00940029  RH  064%=      5-min Rain = 0
KBR1 241600Z 21004KT 10/03 A3013 RMK A01 T00950030  RH  064%=      5-min Rain = 0
KBR1 241601Z 23003KT 10/03 A3013 RMK A01 T00950029  RH  063%=      5-min Rain = 0
KBR1 241602Z 24003KT 10/03 A3013 RMK A01 T00950030  RH  064%=      5-min Rain = 0
KBR1 241603Z 22003KT 10/03 A3013 RMK A01 T00950029  RH  063%=      5-min Rain = 0
KBR1 241604Z 21003KT 10/03 A3013 RMK A01 T00960032  RH  064%=      5-min Rain = 0
KBR1 241605Z 20003KT 10/03 A3013 RMK A01 T00960029  RH  063%=      5-min Rain = 0
KBR1 241606Z 17003KT 10/03 A3013 RMK A01 T00960029  RH  063%=      5-min Rain = 0
KBR1 241607Z 16003KT 10/03 A3013 RMK A01 T00960030  RH  063%=      5-min Rain = 0
KBR1 241608Z 16003KT 10/03 A3013 RMK A01 T00980033  RH  064%=      5-min Rain = 0
KBR1 241609Z 15002KT 10/03 A3013 RMK A01 T00990030  RH  062%=      5-min Rain = 0
KBR1 241610Z 16001KT 10/03 A3013 RMK A01 T00990029  RH  062%=      5-min Rain = 0
KBR1 241611Z 22002KT 10/03 A3013 RMK A01 T00990030  RH  062%=      5-min Rain = 0
KBR1 241612Z 23003KT 10/03 A3013 RMK A01 T00990031  RH  063%=      5-min Rain = 0
KBR1 241613Z 24004KT 10/03 A3013 RMK A01 T00990029  RH  062%=      5-min Rain = 0
KBR1 241614Z 25003KT 10/02 A3013 RMK A01 T00980024  RH  060%=      5-min Rain = 0
KBR1 241615Z 25002KT 10/03 A3013 RMK A01 T00970027  RH  062%=      5-min Rain = 0
KBR1 241616Z 25001KT 10/03 A3013 RMK A01 T00980030  RH  063%=      5-min Rain = 0
KBR1 241617Z 25001KT 10/03 A3013 RMK A01 T00990030  RH  062%=      5-min Rain = 0
KBR1 241618Z 00000KT 10/03 A3013 RMK A01 T01000032  RH  062%=      5-min Rain = 0
KBR1 241619Z 20002KT 10/03 A3013 RMK A01 T01020033  RH  062%=      5-min Rain = 0
KBR1 241620Z 25003KT 10/03 A3013 RMK A01 T01020032  RH  062%=      5-min Rain = 0
KBR1 241621Z 18003KT 10/03 A3013 RMK A01 T01030032  RH  061%=      5-min Rain = 0
KBR1 241622Z 18001KT 10/03 A3013 RMK A01 T01020028  RH  060%=      5-min Rain = 0
KBR1 241623Z 00000KT 10/03 A3013 RMK A01 T01010026  RH  060%=      5-min Rain = 0
KBR1 241624Z 23000KT 10/03 A3013 RMK A01 T01010026  RH  060%=      5-min Rain = 0
KBR1 241625Z 28000KT 10/03 A3013 RMK A01 T01010025  RH  059%=      5-min Rain = 0
KBR1 241626Z 21000KT 10/03 A3013 RMK A01 T01010027  RH  060%=      5-min Rain = 0
KBR1 241627Z 21002KT 10/03 A3013 RMK A01 T01010030  RH  061%=      5-min Rain = 0
KBR1 241628Z 23001KT 10/03 A3013 RMK A01 T01010027  RH  060%=      5-min Rain = 0
KBR1 241629Z 25002KT 10/03 A3013 RMK A01 T01020027  RH  060%=      5-min Rain = 0
KBR1 241630Z 24002KT 10/03 A3013 RMK A01 T01020027  RH  060%=      5-min Rain = 0
KBR1 241631Z 21001KT 10/03 A3013 RMK A01 T01010028  RH  060%=      5-min Rain = 0
KBR1 241632Z 22002KT 10/03 A3013 RMK A01 T01020030  RH  061%=      5-min Rain = 0
KBR1 241633Z 23002KT 10/03 A3013 RMK A01 T01030029  RH  060%=      5-min Rain = 0
KBR1 241634Z 22002KT 10/03 A3013 RMK A01 T01020026  RH  059%=      5-min Rain = 0
KBR1 241635Z 22002KT 10/03 A3013 RMK A01 T01010026  RH  060%=      5-min Rain = 0
KBR1 241636Z 22002KT 10/03 A3013 RMK A01 T01000028  RH  061%=      5-min Rain = 0
KBR1 241637Z 22001KT 10/03 A3013 RMK A01 T01010029  RH  061%=      5-min Rain = 0
KBR1 241638Z 22001KT 10/03 A3013 RMK A01 T01020032  RH  062%=      5-min Rain = 0
KBR1 241639Z 20002KT 10/03 A3013 RMK A01 T01030032  RH  061%=      5-min Rain = 0
KBR1 241640Z 19002KT 10/03 A3013 RMK A01 T01040028  RH  059%=      5-min Rain = 0
KBR1 241641Z 19001KT 10/03 A3013 RMK A01 T01040030  RH  060%=      5-min Rain = 0
KBR1 241642Z 17002KT 10/03 A3013 RMK A01 T01040028  RH  059%=      5-min Rain = 0
KBR1 241643Z 14002KT 10/03 A3013 RMK A01 T01040029  RH  060%=      5-min Rain = 0
KBR1 241644Z 11002KT 11/03 A3013 RMK A01 T01050028  RH  059%=      5-min Rain = 0
KBR1 241645Z 13001KT 11/03 A3013 RMK A01 T01050027  RH  058%=      5-min Rain = 0
KBR1 241646Z 16000KT 11/03 A3013 RMK A01 T01050027  RH  059%=      5-min Rain = 0
KBR1 241647Z 21000KT 11/03 A3013 RMK A01 T01060030  RH  059%=      5-min Rain = 0
KBR1 241648Z 00000KT 11/03 A3013 RMK A01 T01070026  RH  058%=      5-min Rain = 0
KBR1 241649Z 00000KT 11/03 A3013 RMK A01 T01080025  RH  056%=      5-min Rain = 0
KBR1 241650Z 00000KT 11/03 A3013 RMK A01 T01090026  RH  056%=      5-min Rain = 0
KBR1 241651Z 00000KT 11/03 A3013 RMK A01 T01100026  RH  056%=      5-min Rain = 0
KBR1 241652Z 00000KT 11/03 A3013 RMK A01 T01110026  RH  056%=      5-min Rain = 0
KBR1 241653Z 23000KT 11/03 A3013 RMK A01 T01110028  RH  056%=      5-min Rain = 0
KBR1 241654Z 20001KT 11/03 A3013 RMK A01 T01110027  RH  056%=      5-min Rain = 0
KBR1 241655Z 18001KT 11/03 A3013 RMK A01 T01110029  RH  057%=      5-min Rain = 0
KBR1 241656Z 20000KT 11/03 A3013 RMK A01 T01110025  RH  055%=      5-min Rain = 0
KBR1 241657Z 24000KT 11/03 A3013 RMK A01 T01110027  RH  056%=      5-min Rain = 0
KBR1 241658Z 00000KT 11/03 A3013 RMK A01 T01120027  RH  056%=      5-min Rain = 0
KBR1 241659Z 09000KT 11/03 A3013 RMK A01 T01120025  RH  055%=      5-min Rain = 0
KBR1 241700Z 13000KT 11/02 A3013 RMK A01 T01120024  RH  055%=      5-min Rain = 0
KBR1 241701Z 20001KT 11/03 A3013 RMK A01 T01120026  RH  055%=      5-min Rain = 0
KBR1 241702Z 20003KT 11/03 A3013 RMK A01 T01120028  RH  056%=      5-min Rain = 0
KBR1 241703Z 19004KT 11/03 A3013 RMK A01 T01120028  RH  056%=      5-min Rain = 0
KBR1 241704Z 19003KT 11/02 A3013 RMK A01 T01100024  RH  055%=      5-min Rain = 0
KBR1 241705Z 21002KT 11/02 A3013 RMK A01 T01090024  RH  056%=      5-min Rain = 0
KBR1 241706Z 21001KT 11/03 A3013 RMK A01 T01080025  RH  057%=      5-min Rain = 0
KBR1 241707Z 24001KT 11/03 A3013 RMK A01 T01090025  RH  056%=      5-min Rain = 0
KBR1 241708Z 24001KT 11/03 A3013 RMK A01 T01100026  RH  056%=      5-min Rain = 0
KBR1 241709Z 24001KT 11/03 A3013 RMK A01 T01100027  RH  056%=      5-min Rain = 0
KBR1 241710Z 27001KT 11/02 A3013 RMK A01 T01110024  RH  055%=      5-min Rain = 0
KBR1 241711Z 20001KT 11/03 A3013 RMK A01 T01130028  RH  056%=      5-min Rain = 0
KBR1 241712Z 17002KT 11/03 A3013 RMK A01 T01140029  RH  056%=      5-min Rain = 0
KBR1 241713Z 16001KT 11/03 A3013 RMK A01 T01140025  RH  054%=      5-min Rain = 0
KBR1 241714Z 12002KT 11/03 A3013 RMK A01 T01140026  RH  055%=      5-min Rain = 0
KBR1 241715Z 12002KT 12/03 A3013 RMK A01 T01150028  RH  055%=      5-min Rain = 0
KBR1 241716Z 07000KT 12/02 A3013 RMK A01 T01150023  RH  053%=      5-min Rain = 0
KBR1 241717Z 22001KT 11/02 A3013 RMK A01 T01140022  RH  053%=      5-min Rain = 0
KBR1 241718Z 16001KT 11/02 A3013 RMK A01 T01140024  RH  054%=      5-min Rain = 0
KBR1 241719Z 16003KT 12/02 A3013 RMK A01 T01150023  RH  053%=      5-min Rain = 0
KBR1 241720Z 15004KT 12/02 A3013 RMK A01 T01160023  RH  053%=      5-min Rain = 0
KBR1 241721Z 16003KT 12/02 A3013 RMK A01 T01160021  RH  052%=      5-min Rain = 0
KBR1 241722Z 16003KT 12/02 A3013 RMK A01 T01160023  RH  053%=      5-min Rain = 0
KBR1 241723Z 17003KT 12/02 A3013 RMK A01 T01170023  RH  052%=      5-min Rain = 0
KBR1 241724Z 18002KT 12/03 A3013 RMK A01 T01180025  RH  053%=      5-min Rain = 0
KBR1 241725Z 16001KT 12/02 A3012 RMK A01 T01190022  RH  051%=      5-min Rain = 0
KBR1 241726Z 17002KT 12/02 A3012 RMK A01 T01210023  RH  051%=      5-min Rain = 0
KBR1 241727Z 15002KT 12/02 A3012 RMK A01 T01240024  RH  050%=      5-min Rain = 0
KBR1 241728Z 16002KT 13/02 A3012 RMK A01 T01250022  RH  049%=      5-min Rain = 0
KBR1 241729Z 10002KT 13/02 A3012 RMK A01 T01250023  RH  050%=      5-min Rain = 0
KBR1 241730Z 07002KT 13/02 A3012 RMK A01 T01250022  RH  049%=      5-min Rain = 0
KBR1 241731Z 08001KT 13/02 A3012 RMK A01 T01260023  RH  050%=      5-min Rain = 0
KBR1 241732Z 12003KT 13/03 A3012 RMK A01 T01260025  RH  050%=      5-min Rain = 0
KBR1 241733Z 13005KT 13/03 A3012 RMK A01 T01280025  RH  049%=      5-min Rain = 0
KBR1 241734Z 14003KT 13/03 A3012 RMK A01 T01280026  RH  050%=      5-min Rain = 0
KBR1 241735Z 14002KT 13/03 A3012 RMK A01 T01300027  RH  050%=      5-min Rain = 0
KBR1 241736Z 16001KT 13/03 A3012 RMK A01 T01320027  RH  049%=      5-min Rain = 0
KBR1 241737Z 06001KT 14/03 A3012 RMK A01 T01350034  RH  050%=      5-min Rain = 0
KBR1 241738Z 06002KT 14/03 A3012 RMK A01 T01370026  RH  047%=      5-min Rain = 0
KBR1 241739Z 02003KT 14/03 A3012 RMK A01 T01360025  RH  047%=      5-min Rain = 0
KBR1 241740Z 36002KT 13/03 A3012 RMK A01 T01340030  RH  049%=      5-min Rain = 0
KBR1 241741Z 13002KT 13/03 A3012 RMK A01 T01340034  RH  051%=      5-min Rain = 0
KBR1 241742Z 11003KT 14/03 A3012 RMK A01 T01370033  RH  049%=      5-min Rain = 0
KBR1 241743Z 12003KT 14/02 A3012 RMK A01 T01370023  RH  046%=      5-min Rain = 0
KBR1 241744Z 18004KT 14/03 A3012 RMK A01 T01360027  RH  048%=      5-min Rain = 0
KBR1 241745Z 18003KT 14/02 A3012 RMK A01 T01350024  RH  047%=      5-min Rain = 0
KBR1 241746Z 20002KT 13/02 A3012 RMK A01 T01330022  RH  047%=      5-min Rain = 0
KBR1 241747Z 22002KT 13/02 A3012 RMK A01 T01330020  RH  046%=      5-min Rain = 0
KBR1 241748Z 23001KT 13/02 A3012 RMK A01 T01320020  RH  047%=      5-min Rain = 0
KBR1 241749Z 14001G6KT 13/02 A3012 RMK A01 T01310020  RH  047%=      5-min Rain = 0
KBR1 241750Z 14005KT 13/03 A3012 RMK A01 T01320028  RH  049%=      5-min Rain = 0
KBR1 241751Z 16005KT 13/03 A3012 RMK A01 T01340026  RH  048%=      5-min Rain = 0
KBR1 241752Z 17005KT 14/03 A3012 RMK A01 T01350027  RH  048%=      5-min Rain = 0
KBR1 241753Z 15006KT 14/03 A3012 RMK A01 T01360030  RH  049%=      5-min Rain = 0
KBR1 241754Z 15007KT 14/03 A3012 RMK A01 T01380032  RH  049%=      5-min Rain = 0
KBR1 241755Z 15004KT 14/03 A3012 RMK A01 T01380028  RH  047%=      5-min Rain = 0
KBR1 241756Z 15003KT 14/03 A3012 RMK A01 T01380031  RH  048%=      5-min Rain = 0
KBR1 241757Z 15003KT 14/03 A3012 RMK A01 T01390028  RH  047%=      5-min Rain = 0
KBR1 241758Z 14003KT 14/03 A3012 RMK A01 T01390030  RH  048%=      5-min Rain = 0
KBR1 241759Z 19002KT 14/03 A3012 RMK A01 T01400031  RH  048%=      5-min Rain = 0
KBR1 241800Z 24002KT 14/03 A3012 RMK A01 T01400026  RH  046%=      5-min Rain = 0
KBR1 241801Z 18002KT 14/03 A3012 RMK A01 T01370027  RH  048%=      5-min Rain = 0
KBR1 241802Z 20002KT 14/03 A3012 RMK A01 T01370029  RH  048%=      5-min Rain = 0
KBR1 241803Z 19003G8KT 14/03 A3012 RMK A01 T01370027  RH  047%=      5-min Rain = 0
KBR1 241804Z 17007KT 14/03 A3012 RMK A01 T01380033  RH  049%=      5-min Rain = 0
KBR1 241805Z 15006KT 14/03 A3012 RMK A01 T01380026  RH  047%=      5-min Rain = 0
KBR1 241806Z 12005KT 14/03 A3011 RMK A01 T01360027  RH  048%=      5-min Rain = 0
KBR1 241807Z 14007KT 14/03 A3011 RMK A01 T01370031  RH  049%=      5-min Rain = 0
KBR1 241808Z 14006KT 14/03 A3011 RMK A01 T01380030  RH  048%=      5-min Rain = 0
KBR1 241809Z 17005KT 14/03 A3011 RMK A01 T01390026  RH  047%=      5-min Rain = 0
KBR1 241810Z 13006KT 14/03 A3011 RMK A01 T01370028  RH  048%=      5-min Rain = 0
KBR1 241811Z 13008KT 14/04 A3011 RMK A01 T01420039  RH  050%=      5-min Rain = 0
KBR1 241812Z 13007KT 14/03 A3011 RMK A01 T01420029  RH  046%=      5-min Rain = 0
KBR1 241813Z 12005KT 14/02 A3011 RMK A01 T01390022  RH  045%=      5-min Rain = 0
KBR1 241814Z 12004KT 14/02 A3011 RMK A01 T01360021  RH  046%=      5-min Rain = 0
KBR1 241815Z 15003KT 14/03 A3011 RMK A01 T01380030  RH  048%=      5-min Rain = 0
KBR1 241816Z 14005KT 14/03 A3011 RMK A01 T01420028  RH  046%=      5-min Rain = 0
KBR1 241817Z 11004KT 14/02 A3011 RMK A01 T01400023  RH  045%=      5-min Rain = 0
KBR1 241818Z 13004KT 14/03 A3011 RMK A01 T01400031  RH  048%=      5-min Rain = 0
KBR1 241819Z 14007KT 14/03 A3011 RMK A01 T01430032  RH  047%=      5-min Rain = 0
KBR1 241820Z 17008KT 15/03 A3011 RMK A01 T01450034  RH  047%=      5-min Rain = 0
KBR1 241821Z 17007KT 14/03 A3011 RMK A01 T01440033  RH  047%=      5-min Rain = 0
KBR1 241822Z 16008KT 14/03 A3011 RMK A01 T01420031  RH  047%=      5-min Rain = 0
KBR1 241823Z 17006KT 14/03 A3011 RMK A01 T01410027  RH  046%=      5-min Rain = 0
KBR1 241824Z 18004KT 14/02 A3011 RMK A01 T01380024  RH  046%=      5-min Rain = 0
KBR1 241825Z 16002KT 14/03 A3011 RMK A01 T01370029  RH  048%=      5-min Rain = 0
KBR1 241826Z 19004KT 14/03 A3011 RMK A01 T01390030  RH  048%=      5-min Rain = 0
KBR1 241827Z 20005KT 14/03 A3011 RMK A01 T01400027  RH  047%=      5-min Rain = 0
KBR1 241828Z 19005KT 14/03 A3011 RMK A01 T01400028  RH  047%=      5-min Rain = 0
KBR1 241829Z 21004KT 14/02 A3011 RMK A01 T01390023  RH  045%=      5-min Rain = 0
KBR1 241830Z 27003KT 14/02 A3011 RMK A01 T01370020  RH  045%=      5-min Rain = 0
KBR1 241831Z 18004KT 14/03 A3011 RMK A01 T01370027  RH  047%=      5-min Rain = 0
KBR1 241832Z 13007KT 14/03 A3011 RMK A01 T01380028  RH  047%=      5-min Rain = 0
KBR1 241833Z 15004KT 14/03 A3011 RMK A01 T01390027  RH  047%=      5-min Rain = 0
KBR1 241834Z 14004KT 14/03 A301 RMK A01 T01390027  RH  047%=      5-min Rain = 0
KBR1 241835Z 13005KT 14/03 A301 RMK A01 T01390028  RH  047%=      5-min Rain = 0
KBR1 241836Z 15006KT 14/03 A301 RMK A01 T01410030  RH  047%=      5-min Rain = 0
KBR1 241837Z 14003KT 14/02 A301 RMK A01 T01400022  RH  045%=      5-min Rain = 0
KBR1 241838Z 11004KT 14/03 A301 RMK A01 T01390026  RH  046%=      5-min Rain = 0
KBR1 241839Z 09003KT 14/03 A301 RMK A01 T01410031  RH  048%=      5-min Rain = 0
KBR1 241840Z 10004KT 14/03 A301 RMK A01 T01420029  RH  046%=      5-min Rain = 0
KBR1 241841Z 10004KT 14/02 A301 RMK A01 T01430023  RH  044%=      5-min Rain = 0
KBR1 241842Z 13005KT 14/03 A301 RMK A01 T01430027  RH  046%=      5-min Rain = 0
KBR1 241843Z 13007KT 15/03 A301 RMK A01 T01460030  RH  046%=      5-min Rain = 0
KBR1 241844Z 13006KT 14/02 A301 RMK A01 T01440024  RH  044%=      5-min Rain = 0
KBR1 241845Z 16002G8KT 14/02 A301 RMK A01 T01410019  RH  044%=      5-min Rain = 0
KBR1 241846Z 16006KT 14/03 A301 RMK A01 T01400025  RH  046%=      5-min Rain = 0
KBR1 241847Z 15001KT 14/02 A301 RMK A01 T01410018  RH  044%=      5-min Rain = 0
KBR1 241848Z 16003KT 14/02 A301 RMK A01 T01410020  RH  044%=      5-min Rain = 0
KBR1 241849Z 16007KT 14/03 A301 RMK A01 T01420028  RH  046%=      5-min Rain = 0
KBR1 241850Z 15006KT 14/03 A301 RMK A01 T01440026  RH  045%=      5-min Rain = 0
KBR1 241851Z 17004KT 14/03 A301 RMK A01 T01440025  RH  045%=      5-min Rain = 0
KBR1 241852Z 19001KT 15/02 A301 RMK A01 T01450022  RH  043%=      5-min Rain = 0
KBR1 241853Z 18004KT 15/03 A301 RMK A01 T01470026  RH  044%=      5-min Rain = 0
KBR1 241854Z 14002KT 15/02 A301 RMK A01 T01470020  RH  042%=      5-min Rain = 0
KBR1 241855Z 20005KT 15/02 A301 RMK A01 T01460024  RH  044%=      5-min Rain = 0
KBR1 241856Z 21006KT 15/03 A301 RMK A01 T01460025  RH  044%=      5-min Rain = 0
KBR1 241857Z 18006KT 15/03 A301 RMK A01 T01470029  RH  045%=      5-min Rain = 0
KBR1 241858Z 18006KT 15/03 A301 RMK A01 T01460028  RH  045%=      5-min Rain = 0
KBR1 241859Z 20006KT 15/03 A301 RMK A01 T01460029  RH  045%=      5-min Rain = 0
KBR1 241900Z 20007KT 15/03 A301 RMK A01 T01460030  RH  046%=      5-min Rain = 0
KBR1 241901Z 19006KT 15/03 A301 RMK A01 T01470027  RH  044%=      5-min Rain = 0
KBR1 241902Z 21001KT 15/02 A301 RMK A01 T01460017  RH  042%=      5-min Rain = 0
KBR1 241903Z 23003KT 15/02 A301 RMK A01 T01450020  RH  043%=      5-min Rain = 0
KBR1 241904Z 22003KT 14/02 A301 RMK A01 T01440023  RH  044%=      5-min Rain = 0
KBR1 241905Z 22004KT 15/03 A301 RMK A01 T01460025  RH  044%=      5-min Rain = 0
KBR1 241906Z 23002KT 15/02 A301 RMK A01 T01470019  RH  042%=      5-min Rain = 0
KBR1 241907Z 17003KT 15/02 A301 RMK A01 T01460022  RH  043%=      5-min Rain = 0
KBR1 241908Z 17004KT 15/03 A301 RMK A01 T01480029  RH  045%=      5-min Rain = 0
KBR1 241909Z 18005KT 15/03 A301 RMK A01 T01490025  RH  043%=      5-min Rain = 0
KBR1 241910Z 18007KT 15/03 A301 RMK A01 T01500027  RH  044%=      5-min Rain = 0
KBR1 241911Z 18006KT 15/02 A301 RMK A01 T01490020  RH  042%=      5-min Rain = 0
KBR1 241912Z 16005KT 15/02 A301 RMK A01 T01460019  RH  042%=      5-min Rain = 0
KBR1 241913Z 14003KT 15/02 A301 RMK A01 T01450021  RH  043%=      5-min Rain = 0
KBR1 241914Z 12002KT 15/02 A301 RMK A01 T01460022  RH  043%=      5-min Rain = 0
KBR1 241915Z 14006KT 15/03 A301 RMK A01 T01470025  RH  044%=      5-min Rain = 0
KBR1 241916Z 12004KT 15/02 A301 RMK A01 T01460019  RH  042%=      5-min Rain = 0
KBR1 241917Z 04002KT 15/02 A301 RMK A01 T01450020  RH  043%=      5-min Rain = 0
KBR1 241918Z 00002KT 14/02 A301 RMK A01 T01440019  RH  043%=      5-min Rain = 0
KBR1 241919Z 36002KT 14/02 A301 RMK A01 T01440021  RH  043%=      5-min Rain = 0
KBR1 241920Z 07002KT 14/03 A301 RMK A01 T01440025  RH  045%=      5-min Rain = 0
KBR1 241921Z 13002KT 15/02 A301 RMK A01 T01450021  RH  043%=      5-min Rain = 0
KBR1 241922Z 13004G9KT 15/03 A301 RMK A01 T01460025  RH  044%=      5-min Rain = 0
KBR1 241923Z 12007KT 15/03 A301 RMK A01 T01490030  RH  045%=      5-min Rain = 0
KBR1 241924Z 11004KT 15/03 A301 RMK A01 T01500026  RH  043%=      5-min Rain = 0
KBR1 241925Z 07004KT 15/03 A301 RMK A01 T01500029  RH  044%=      5-min Rain = 0
KBR1 241926Z 10004KT 15/03 A301 RMK A01 T01510029  RH  044%=      5-min Rain = 0
KBR1 241927Z 10004KT 15/03 A3009 RMK A01 T01510030  RH  044%=      5-min Rain = 0
KBR1 241928Z 12002KT 15/03 A3009 RMK A01 T01530033  RH  044%=      5-min Rain = 0
KBR1 241929Z 10003KT 15/03 A3009 RMK A01 T01540032  RH  044%=      5-min Rain = 0
KBR1 241930Z 16006KT 15/03 A3009 RMK A01 T01540031  RH  044%=      5-min Rain = 0
KBR1 241931Z 15006KT 15/03 A3009 RMK A01 T01530025  RH  042%=      5-min Rain = 0
KBR1 241932Z 15006KT 15/03 A3009 RMK A01 T01530027  RH  043%=      5-min Rain = 0
KBR1 241933Z 14006KT 15/03 A3009 RMK A01 T01530032  RH  044%=      5-min Rain = 0
KBR1 241934Z 16008KT 15/03 A3009 RMK A01 T01530025  RH  042%=      5-min Rain = 0
KBR1 241935Z 17005KT 15/02 A3009 RMK A01 T01520024  RH  042%=      5-min Rain = 0
KBR1 241936Z 17005KT 15/03 A3009 RMK A01 T01510030  RH  044%=      5-min Rain = 0
KBR1 241937Z 15006KT 15/03 A3009 RMK A01 T01520025  RH  043%=      5-min Rain = 0
KBR1 241938Z 16005KT 15/03 A3009 RMK A01 T01520025  RH  042%=      5-min Rain = 0
KBR1 241939Z 17002KT 15/02 A3009 RMK A01 T01500018  RH  041%=      5-min Rain = 0
KBR1 241940Z 18004KT 15/02 A3009 RMK A01 T01510024  RH  043%=      5-min Rain = 0
KBR1 241941Z 13002KT 15/02 A3009 RMK A01 T01520022  RH  042%=      5-min Rain = 0
KBR1 241942Z 17004KT 15/02 A3009 RMK A01 T01520023  RH  042%=      5-min Rain = 0
KBR1 241943Z 19006KT 15/03 A3009 RMK A01 T01530027  RH  043%=      5-min Rain = 0
KBR1 241944Z 17005KT 16/03 A3009 RMK A01 T01550030  RH  043%=      5-min Rain = 0
KBR1 241945Z 16007KT 16/03 A3009 RMK A01 T01560029  RH  043%=      5-min Rain = 0
KBR1 241946Z 17007KT 16/03 A3009 RMK A01 T01560026  RH  042%=      5-min Rain = 0
KBR1 241947Z 18007KT 16/02 A3009 RMK A01 T01550024  RH  041%=      5-min Rain = 0
KBR1 241948Z 16004KT 15/02 A3009 RMK A01 T01530022  RH  041%=      5-min Rain = 0
KBR1 241949Z 14007KT 15/03 A3008 RMK A01 T01530025  RH  042%=      5-min Rain = 0
KBR1 241950Z 13009KT 16/03 A3008 RMK A01 T01550028  RH  042%=      5-min Rain = 0
KBR1 241951Z 12008KT 16/02 A3008 RMK A01 T01550024  RH  041%=      5-min Rain = 0
KBR1 241952Z 11004KT 15/02 A3008 RMK A01 T01530020  RH  041%=      5-min Rain = 0
KBR1 241953Z 14007KT 15/03 A3008 RMK A01 T01520028  RH  043%=      5-min Rain = 0
KBR1 241954Z 15007KT 16/03 A3008 RMK A01 T01550029  RH  043%=      5-min Rain = 0
KBR1 241955Z 12005KT 16/03 A3008 RMK A01 T01550028  RH  042%=      5-min Rain = 0
KBR1 241956Z 10002KT 15/02 A3008 RMK A01 T01540021  RH  041%=      5-min Rain = 0
KBR1 241957Z 06001KT 15/02 A3008 RMK A01 T01520016  RH  040%=      5-min Rain = 0
KBR1 241958Z 09002KT 15/02 A3008 RMK A01 T01520023  RH  042%=      5-min Rain = 0
KBR1 241959Z 13002KT 15/03 A3008 RMK A01 T01540027  RH  042%=      5-min Rain = 0
KBR1 242000Z 11003KT 15/02 A3008 RMK A01 T01540023  RH  041%=      5-min Rain = 0
KBR1 242001Z 10008KT 16/03 A3008 RMK A01 T01560029  RH  042%=      5-min Rain = 0
KBR1 242002Z 09009KT 16/03 A3008 RMK A01 T01560030  RH  043%=      5-min Rain = 0
KBR1 242003Z 08006KT 16/03 A3008 RMK A01 T01550028  RH  043%=      5-min Rain = 0
KBR1 242004Z 07004KT 15/02 A3008 RMK A01 T01540021  RH  041%=      5-min Rain = 0
KBR1 242005Z 10003KT 15/02 A3008 RMK A01 T01530022  RH  041%=      5-min Rain = 0
KBR1 242006Z 11003KT 15/03 A3008 RMK A01 T01530030  RH  044%=      5-min Rain = 0
KBR1 242007Z 18005KT 16/03 A3008 RMK A01 T01560028  RH  042%=      5-min Rain = 0
KBR1 242008Z 19006KT 16/02 A3008 RMK A01 T01570023  RH  040%=      5-min Rain = 0
KBR1 242009Z 18007KT 16/03 A3008 RMK A01 T01580030  RH  042%=      5-min Rain = 0
KBR1 242010Z 19006KT 16/02 A3008 RMK A01 T01590022  RH  040%=      5-min Rain = 0
KBR1 242011Z 18005KT 16/02 A3008 RMK A01 T01590023  RH  040%=      5-min Rain = 0
KBR1 242012Z 19006KT 16/03 A3008 RMK A01 T01590025  RH  040%=      5-min Rain = 0
KBR1 242013Z 17008KT 16/03 A3008 RMK A01 T01590028  RH  041%=      5-min Rain = 0
KBR1 242014Z 16006KT 16/03 A3008 RMK A01 T01580025  RH  041%=      5-min Rain = 0
KBR1 242015Z 13008KT 16/03 A3008 RMK A01 T01590034  RH  043%=      5-min Rain = 0
KBR1 242016Z 12007KT 16/03 A3008 RMK A01 T01600028  RH  041%=      5-min Rain = 0
KBR1 242017Z 12006KT 16/02 A3008 RMK A01 T01570024  RH  041%=      5-min Rain = 0
KBR1 242018Z 10003KT 16/03 A3008 RMK A01 T01570025  RH  041%=      5-min Rain = 0
KBR1 242019Z 05002KT 16/02 A3008 RMK A01 T01560021  RH  040%=      5-min Rain = 0
KBR1 242020Z 04002KT 16/02 A3008 RMK A01 T01560022  RH  040%=      5-min Rain = 0
KBR1 242021Z 34003KT 16/02 A3007 RMK A01 T01550022  RH  041%=      5-min Rain = 0
KBR1 242022Z 34004KT 16/02 A3007 RMK A01 T01550024  RH  041%=      5-min Rain = 0
KBR1 242023Z 01003KT 16/03 A3008 RMK A01 T01550026  RH  042%=      5-min Rain = 0
KBR1 242024Z 09003KT 16/02 A3008 RMK A01 T01560024  RH  041%=      5-min Rain = 0
KBR1 242025Z 11004KT 16/02 A3008 RMK A01 T01570023  RH  040%=      5-min Rain = 0
KBR1 242026Z 10004KT 16/02 A3007 RMK A01 T01560022  RH  040%=      5-min Rain = 0
KBR1 242027Z 11004KT 16/02 A3007 RMK A01 T01560023  RH  041%=      5-min Rain = 0
KBR1 242028Z 15006KT 16/02 A3007 RMK A01 T01560023  RH  041%=      5-min Rain = 0
KBR1 242029Z 16006KT 16/02 A3007 RMK A01 T01580023  RH  040%=      5-min Rain = 0
KBR1 242030Z 17004KT 16/02 A3007 RMK A01 T01580018  RH  039%=      5-min Rain = 0
KBR1 242031Z 16004KT 16/02 A3007 RMK A01 T01570017  RH  039%=      5-min Rain = 0
KBR1 242032Z 18006KT 16/02 A3007 RMK A01 T01590024  RH  040%=      5-min Rain = 0
KBR1 242033Z 20006KT 16/02 A3007 RMK A01 T01600019  RH  039%=      5-min Rain = 0
KBR1 242034Z 20009KT 16/03 A3007 RMK A01 T01600026  RH  040%=      5-min Rain = 0
KBR1 242035Z 20007KT 16/02 A3007 RMK A01 T01600020  RH  039%=      5-min Rain = 0
KBR1 242036Z 19005KT 16/03 A3007 RMK A01 T01600026  RH  040%=      5-min Rain = 0
KBR1 242037Z 20007KT 16/02 A3007 RMK A01 T01620023  RH  039%=      5-min Rain = 0
KBR1 242038Z 20007KT 16/02 A3007 RMK A01 T01620021  RH  039%=      5-min Rain = 0
KBR1 242039Z 20005KT 16/02 A3007 RMK A01 T01620019  RH  038%=      5-min Rain = 0
KBR1 242040Z 18005KT 16/02 A3007 RMK A01 T01620023  RH  039%=      5-min Rain = 0
KBR1 242041Z 15003KT 16/02 A3007 RMK A01 T01620023  RH  039%=      5-min Rain = 0
KBR1 242042Z 18002KT 16/03 A3007 RMK A01 T01640033  RH  042%=      5-min Rain = 0
KBR1 242043Z 23002KT 17/03 A3007 RMK A01 T01670028  RH  039%=      5-min Rain = 0
KBR1 242044Z 28001KT 17/02 A3007 RMK A01 T01670016  RH  036%=      5-min Rain = 0
KBR1 242045Z 26001KT 17/02 A3007 RMK A01 T01650022  RH  038%=      5-min Rain = 0
KBR1 242046Z 16002KT 17/02 A3007 RMK A01 T01660022  RH  038%=      5-min Rain = 0
KBR1 242047Z 18006KT 17/02 A3007 RMK A01 T01660024  RH  038%=      5-min Rain = 0
KBR1 242048Z 18007KT 17/03 A3007 RMK A01 T01660025  RH  039%=      5-min Rain = 0
KBR1 242049Z 20006KT 16/02 A3007 RMK A01 T01640019  RH  038%=      5-min Rain = 0
KBR1 242050Z 20006KT 16/02 A3007 RMK A01 T01620018  RH  038%=      5-min Rain = 0
KBR1 242051Z 19004KT 16/02 A3007 RMK A01 T01600015  RH  037%=      5-min Rain = 0
KBR1 242052Z 21004KT 16/01 A3007 RMK A01 T01590014  RH  037%=      5-min Rain = 0
KBR1 242053Z 22004KT 16/02 A3007 RMK A01 T01590015  RH  038%=      5-min Rain = 0
KBR1 242054Z 14003KT 16/02 A3007 RMK A01 T01610022  RH  039%=      5-min Rain = 0
KBR1 242055Z 15001KT 16/02 A3007 RMK A01 T01620016  RH  037%=      5-min Rain = 0
KBR1 242056Z 30001KT 16/01 A3007 RMK A01 T01620012  RH  036%=      5-min Rain = 0
KBR1 242057Z 03003KT 16/02 A3007 RMK A01 T01620017  RH  037%=      5-min Rain = 0
KBR1 242058Z 36002KT 16/02 A3007 RMK A01 T01620018  RH  038%=      5-min Rain = 0
KBR1 242059Z 32000KT 16/02 A3007 RMK A01 T01620017  RH  037%=      5-min Rain = 0
KBR1 242100Z 00001KT 16/02 A3007 RMK A01 T01620016  RH  037%=      5-min Rain = 0
KBR1 242101Z 05002KT 16/02 A3007 RMK A01 T01620015  RH  037%=      5-min Rain = 0
KBR1 242102Z 05003KT 16/02 A3007 RMK A01 T01620018  RH  038%=      5-min Rain = 0
KBR1 242103Z 12003KT 16/03 A3007 RMK A01 T01620025  RH  040%=      5-min Rain = 0
KBR1 242104Z 16002KT 16/02 A3007 RMK A01 T01640023  RH  039%=      5-min Rain = 0
KBR1 242105Z 16001KT 17/02 A3007 RMK A01 T01650018  RH  037%=      5-min Rain = 0
KBR1 242106Z 20002KT 16/02 A3007 RMK A01 T01640016  RH  037%=      5-min Rain = 0
KBR1 242107Z 18003KT 17/03 A3007 RMK A01 T01660025  RH  039%=      5-min Rain = 0
KBR1 242108Z 17005KT 17/03 A3007 RMK A01 T01680033  RH  040%=      5-min Rain = 0
KBR1 242109Z 17008KT 17/03 A3007 RMK A01 T01710030  RH  039%=      5-min Rain = 0
KBR1 242110Z 16009KT 17/03 A3007 RMK A01 T01710030  RH  039%=      5-min Rain = 0
KBR1 242111Z 15008KT 17/03 A3007 RMK A01 T01700028  RH  038%=      5-min Rain = 0
KBR1 242112Z 15007KT 17/03 A3007 RMK A01 T01680026  RH  038%=      5-min Rain = 0
KBR1 242113Z 14006KT 17/03 A3007 RMK A01 T01680026  RH  039%=      5-min Rain = 0
KBR1 242114Z 16006KT 17/03 A3007 RMK A01 T01670026  RH  039%=      5-min Rain = 0
KBR1 242115Z 15005KT 17/02 A3007 RMK A01 T01670023  RH  038%=      5-min Rain = 0
KBR1 242116Z 17004KT 17/02 A3007 RMK A01 T01660024  RH  039%=      5-min Rain = 0
KBR1 242117Z 20004KT 17/03 A3007 RMK A01 T01670027  RH  039%=      5-min Rain = 0
KBR1 242118Z 18003KT 17/02 A3007 RMK A01 T01670020  RH  037%=      5-min Rain = 0
KBR1 242119Z 18003KT 17/03 A3007 RMK A01 T01680029  RH  039%=      5-min Rain = 0
KBR1 242120Z 20004KT 17/03 A3007 RMK A01 T01700029  RH  039%=      5-min Rain = 0
KBR1 242121Z 20002KT 17/02 A3007 RMK A01 T01680019  RH  037%=      5-min Rain = 0
KBR1 242122Z 35001KT 17/02 A3007 RMK A01 T01680020  RH  037%=      5-min Rain = 0
KBR1 242123Z 07003KT 17/03 A3006 RMK A01 T01690031  RH  040%=      5-min Rain = 0
KBR1 242124Z 07003KT 17/03 A3006 RMK A01 T01700025  RH  038%=      5-min Rain = 0
KBR1 242125Z 09005KT 17/03 A3006 RMK A01 T01700029  RH  039%=      5-min Rain = 0
KBR1 242126Z 09004KT 17/03 A3006 RMK A01 T01710025  RH  038%=      5-min Rain = 0
KBR1 242127Z 11003KT 17/03 A3006 RMK A01 T01710029  RH  039%=      5-min Rain = 0
KBR1 242128Z 17003KT 17/03 A3006 RMK A01 T01730031  RH  039%=      5-min Rain = 0
KBR1 242129Z 19005KT 17/02 A3006 RMK A01 T01730022  RH  036%=      5-min Rain = 0
KBR1 242130Z 19006KT 17/02 A3006 RMK A01 T01710021  RH  036%=      5-min Rain = 0
KBR1 242131Z 19006KT 17/02 A3006 RMK A01 T01710022  RH  037%=      5-min Rain = 0
KBR1 242132Z 19006KT 17/02 A3006 RMK A01 T01700018  RH  036%=      5-min Rain = 0
KBR1 242133Z 17007KT 17/02 A3006 RMK A01 T01690022  RH  037%=      5-min Rain = 0
KBR1 242134Z 16006KT 17/02 A3006 RMK A01 T01690021  RH  037%=      5-min Rain = 0
KBR1 242135Z 15005KT 17/02 A3006 RMK A01 T01700023  RH  037%=      5-min Rain = 0
KBR1 242136Z 15005KT 17/02 A3006 RMK A01 T01700021  RH  037%=      5-min Rain = 0
KBR1 242137Z 15004KT 17/02 A3006 RMK A01 T01710024  RH  037%=      5-min Rain = 0
KBR1 242138Z 19003KT 17/03 A3006 RMK A01 T01720029  RH  038%=      5-min Rain = 0
KBR1 242139Z 22001KT 17/03 A3006 RMK A01 T01740027  RH  037%=      5-min Rain = 0
KBR1 242140Z 15001KT 18/02 A3006 RMK A01 T01760024  RH  036%=      5-min Rain = 0
KBR1 242141Z 14003KT 18/03 A3006 RMK A01 T01780025  RH  036%=      5-min Rain = 0
KBR1 242142Z 16005KT 18/02 A3006 RMK A01 T01770023  RH  036%=      5-min Rain = 0
KBR1 242143Z 16004KT 18/02 A3006 RMK A01 T01750020  RH  035%=      5-min Rain = 0
KBR1 242144Z 18001KT 17/02 A3006 RMK A01 T01730021  RH  036%=      5-min Rain = 0
KBR1 242145Z 20001KT 17/02 A3006 RMK A01 T01730022  RH  036%=      5-min Rain = 0
KBR1 242146Z 20002KT 17/02 A3006 RMK A01 T01740021  RH  036%=      5-min Rain = 0
KBR1 242147Z 21002KT 18/02 A3006 RMK A01 T01750019  RH  035%=      5-min Rain = 0
KBR1 242148Z 23002KT 18/02 A3006 RMK A01 T01750022  RH  036%=      5-min Rain = 0
KBR1 242149Z 17002KT 18/03 A3006 RMK A01 T01750026  RH  037%=      5-min Rain = 0
KBR1 242150Z 14003KT 18/03 A3006 RMK A01 T01760025  RH  036%=      5-min Rain = 0
KBR1 242151Z 10002KT 18/03 A3005 RMK A01 T01770027  RH  037%=      5-min Rain = 0
KBR1 242152Z 08002KT 18/03 A3005 RMK A01 T01770032  RH  038%=      5-min Rain = 0
KBR1 242153Z 17002KT 18/03 A3005 RMK A01 T01780026  RH  036%=      5-min Rain = 0
KBR1 242154Z 23001KT 18/03 A3005 RMK A01 T01790026  RH  036%=      5-min Rain = 0
KBR1 242155Z 16002KT 18/03 A3005 RMK A01 T01810031  RH  037%=      5-min Rain = 0
KBR1 242156Z 15004KT 18/02 A3005 RMK A01 T01820019  RH  034%=      5-min Rain = 0
KBR1 242157Z 15006KT 18/02 A3005 RMK A01 T01800020  RH  034%=      5-min Rain = 0
KBR1 242158Z 17006KT 18/02 A3005 RMK A01 T01790022  RH  035%=      5-min Rain = 0
KBR1 242159Z 13003KT 18/01 A3005 RMK A01 T01780014  RH  033%=      5-min Rain = 0
KBR1 242200Z 12001KT 18/01 A3005 RMK A01 T01760014  RH  033%=      5-min Rain = 0
KBR1 242201Z 13003KT 18/02 A3005 RMK A01 T01760021  RH  035%=      5-min Rain = 0
KBR1 242202Z 14004KT 18/02 A3005 RMK A01 T01770018  RH  034%=      5-min Rain = 0
KBR1 242203Z 19003KT 18/02 A3005 RMK A01 T01770017  RH  034%=      5-min Rain = 0
KBR1 242204Z 26003KT 18/02 A3005 RMK A01 T01780019  RH  035%=      5-min Rain = 0
KBR1 242205Z 11002KT 18/03 A3005 RMK A01 T01800026  RH  036%=      5-min Rain = 0
KBR1 242206Z 11004KT 18/03 A3005 RMK A01 T01810027  RH  036%=      5-min Rain = 0
KBR1 242207Z 13005KT 18/02 A3005 RMK A01 T01810023  RH  035%=      5-min Rain = 0
KBR1 242208Z 14007KT 18/02 A3004 RMK A01 T01800020  RH  034%=      5-min Rain = 0
KBR1 242209Z 17010KT 18/03 A3004 RMK A01 T01810029  RH  036%=      5-min Rain = 0
KBR1 242210Z 16008KT 18/02 A3004 RMK A01 T01820023  RH  034%=      5-min Rain = 0
KBR1 242211Z 17010KT 18/03 A3004 RMK A01 T01810025  RH  035%=      5-min Rain = 0
KBR1 242212Z 16008KT 18/02 A3004 RMK A01 T01810023  RH  035%=      5-min Rain = 0
KBR1 242213Z 14004KT 18/02 A3005 RMK A01 T01810024  RH  035%=      5-min Rain = 0
KBR1 242214Z 13004KT 18/03 A3004 RMK A01 T01820033  RH  037%=      5-min Rain = 0
KBR1 242215Z 14004KT 18/02 A3004 RMK A01 T01830019  RH  033%=      5-min Rain = 0
KBR1 242216Z 10003KT 18/01 A3004 RMK A01 T01800014  RH  033%=      5-min Rain = 0
KBR1 242217Z 13002KT 18/02 A3004 RMK A01 T01790018  RH  034%=      5-min Rain = 0
KBR1 242218Z 14007KT 18/02 A3004 RMK A01 T01790018  RH  034%=      5-min Rain = 0
KBR1 242219Z 14005KT 18/01 A3004 RMK A01 T01790014  RH  033%=      5-min Rain = 0
KBR1 242220Z 13008KT 18/02 A3004 RMK A01 T01790017  RH  034%=      5-min Rain = 0
KBR1 242221Z 13008KT 18/02 A3004 RMK A01 T01800020  RH  034%=      5-min Rain = 0
KBR1 242222Z 13007KT 18/02 A3004 RMK A01 T01810015  RH  033%=      5-min Rain = 0
KBR1 242223Z 12006KT 18/02 A3004 RMK A01 T01810016  RH  033%=      5-min Rain = 0
KBR1 242224Z 11002KT 18/02 A3004 RMK A01 T01800018  RH  034%=      5-min Rain = 0
KBR1 242225Z 21003KT 18/02 A3004 RMK A01 T01810019  RH  034%=      5-min Rain = 0
KBR1 242226Z 18002KT 18/02 A3004 RMK A01 T01820015  RH  033%=      5-min Rain = 0
KBR1 242227Z 15002KT 18/02 A3004 RMK A01 T01830016  RH  033%=      5-min Rain = 0
KBR1 242228Z 14004KT 18/02 A3004 RMK A01 T01840021  RH  034%=      5-min Rain = 0
KBR1 242229Z 11003KT 18/02 A3004 RMK A01 T01840015  RH  032%=      5-min Rain = 0
KBR1 242230Z 15003KT 18/02 A3004 RMK A01 T01830018  RH  033%=      5-min Rain = 0
KBR1 242231Z 16005KT 18/02 A3004 RMK A01 T01820017  RH  033%=      5-min Rain = 0
KBR1 242232Z 16007KT 18/02 A3004 RMK A01 T01830021  RH  034%=      5-min Rain = 0
KBR1 242233Z 16006KT 18/01 A3004 RMK A01 T01840013  RH  032%=      5-min Rain = 0
KBR1 242234Z 15004KT 18/01 A3004 RMK A01 T01830010  RH  031%=      5-min Rain = 0
KBR1 242235Z 15003KT 18/02 A3004 RMK A01 T01820019  RH  034%=      5-min Rain = 0
KBR1 242236Z 13005KT 18/02 A3004 RMK A01 T01840022  RH  034%=      5-min Rain = 0
KBR1 242237Z 12006KT 19/03 A3003 RMK A01 T01860027  RH  035%=      5-min Rain = 0
KBR1 242238Z 12006KT 19/02 A3003 RMK A01 T01870023  RH  033%=      5-min Rain = 0
KBR1 242239Z 13006KT 19/02 A3003 RMK A01 T01860018  RH  033%=      5-min Rain = 0
KBR1 242240Z 12007KT 19/02 A3003 RMK A01 T01850020  RH  033%=      5-min Rain = 0
KBR1 242241Z 13007KT 19/01 A3003 RMK A01 T01860008  RH  030%=      5-min Rain = 0
KBR1 242242Z 11003KT 18/01 A3003 RMK A01 T01840007  RH  030%=      5-min Rain = 0
KBR1 242243Z 10007KT 18/01 A3003 RMK A01 T01840011  RH  031%=      5-min Rain = 0
KBR1 242244Z 11007KT 19/02 A3003 RMK A01 T01870018  RH  032%=      5-min Rain = 0
KBR1 242245Z 10006KT 19/02 A3003 RMK A01 T01880018  RH  032%=      5-min Rain = 0
KBR1 242246Z 10006KT 19/02 A3003 RMK A01 T01870015  RH  031%=      5-min Rain = 0
KBR1 242247Z 13006KT 19/02 A3003 RMK A01 T01870019  RH  033%=      5-min Rain = 0
KBR1 242248Z 12006KT 19/02 A3003 RMK A01 T01870021  RH  033%=      5-min Rain = 0
KBR1 242249Z 12006KT 19/02 A3003 RMK A01 T01890018  RH  032%=      5-min Rain = 0
KBR1 242250Z 14004KT 19/01 A3003 RMK A01 T01890013  RH  031%=      5-min Rain = 0
KBR1 242251Z 16006KT 19/01 A3003 RMK A01 T01880009  RH  030%=      5-min Rain = 0
KBR1 242252Z 19007KT 19/01 A3003 RMK A01 T01880011  RH  030%=      5-min Rain = 0
KBR1 242253Z 20008KT 19/01 A3003 RMK A01 T01890008  RH  030%=      5-min Rain = 0
KBR1 242254Z 20004KT 19/00 A3003 RMK A01 T01890003  RH  029%=      5-min Rain = 0
KBR1 242255Z 20005KT 19/00 A3003 RMK A01 T01890000  RH  028%=      5-min Rain = 0
KBR1 242256Z 20004KT 19/00 A3003 RMK A01 T01880003  RH  029%=      5-min Rain = 0
KBR1 242257Z 20004KT 19/M00 A3002 RMK A01 T01881002  RH  028%=      5-min Rain = 0
KBR1 242258Z 21003KT 19/00 A3002 RMK A01 T01870002  RH  029%=      5-min Rain = 0
KBR1 242259Z 22004KT 19/00 A3002 RMK A01 T01880004  RH  029%=      5-min Rain = 0
KBR1 242300Z 20003KT 19/00 A3003 RMK A01 T01880004  RH  029%=      5-min Rain = 0
KBR1 242301Z 17005KT 19/00 A3003 RMK A01 T01880004  RH  029%=      5-min Rain = 0
KBR1 242302Z 15005KT 19/01 A3003 RMK A01 T01890012  RH  031%=      5-min Rain = 0
KBR1 242303Z 13005KT 19/01 A3003 RMK A01 T01890012  RH  031%=      5-min Rain = 0
KBR1 242304Z 11006KT 19/01 A3002 RMK A01 T01890014  RH  031%=      5-min Rain = 0
KBR1 242305Z 13007KT 19/02 A3002 RMK A01 T01890019  RH  032%=      5-min Rain = 0
KBR1 242306Z 13008KT 19/02 A3002 RMK A01 T01900019  RH  032%=      5-min Rain = 0
KBR1 242307Z 14008KT 19/02 A3002 RMK A01 T01910023  RH  033%=      5-min Rain = 0
KBR1 242308Z 15009KT 19/02 A3002 RMK A01 T01920017  RH  031%=      5-min Rain = 0
KBR1 242309Z 18008KT 19/02 A3002 RMK A01 T01910015  RH  031%=      5-min Rain = 0
KBR1 242310Z 17005KT 19/01 A3002 RMK A01 T01900014  RH  031%=      5-min Rain = 0
KBR1 242311Z 15005KT 19/01 A3002 RMK A01 T01900009  RH  030%=      5-min Rain = 0
KBR1 242312Z 14005KT 19/01 A3002 RMK A01 T01900014  RH  031%=      5-min Rain = 0
KBR1 242313Z 14006KT 19/01 A3002 RMK A01 T01890012  RH  030%=      5-min Rain = 0
KBR1 242314Z 13007KT 19/01 A3002 RMK A01 T01900014  RH  031%=      5-min Rain = 0
KBR1 242315Z 13005KT 19/01 A3002 RMK A01 T01890009  RH  030%=      5-min Rain = 0
KBR1 242316Z 13007KT 19/02 A3002 RMK A01 T01880018  RH  032%=      5-min Rain = 0
KBR1 242317Z 13008KT 19/01 A3002 RMK A01 T01890013  RH  031%=      5-min Rain = 0
KBR1 242318Z 13007KT 19/01 A3002 RMK A01 T01890014  RH  031%=      5-min Rain = 0
KBR1 242319Z 15003KT 19/01 A3002 RMK A01 T01880014  RH  031%=      5-min Rain = 0
KBR1 242320Z 15005KT 19/01 A3002 RMK A01 T01880013  RH  031%=      5-min Rain = 0
KBR1 242321Z 14005KT 19/01 A3002 RMK A01 T01880012  RH  031%=      5-min Rain = 0
KBR1 242322Z 15007KT 19/02 A3002 RMK A01 T01880015  RH  031%=      5-min Rain = 0
KBR1 242323Z 15008KT 19/02 A3002 RMK A01 T01890015  RH  031%=      5-min Rain = 0
KBR1 242324Z 14006KT 19/01 A3002 RMK A01 T01890009  RH  030%=      5-min Rain = 0
KBR1 242325Z 13004KT 19/00 A3002 RMK A01 T01880003  RH  029%=      5-min Rain = 0
KBR1 242326Z 13004KT 19/01 A3002 RMK A01 T01880008  RH  030%=      5-min Rain = 0
KBR1 242327Z 11005KT 19/01 A3002 RMK A01 T01880009  RH  030%=      5-min Rain = 0
KBR1 242328Z 11005KT 19/01 A3002 RMK A01 T01880012  RH  031%=      5-min Rain = 0
KBR1 242329Z 12005KT 19/01 A3002 RMK A01 T01890013  RH  031%=      5-min Rain = 0
KBR1 242330Z 11006KT 19/01 A3002 RMK A01 T01890011  RH  030%=      5-min Rain = 0
KBR1 242331Z 11005KT 19/01 A3002 RMK A01 T01890011  RH  030%=      5-min Rain = 0
KBR1 242332Z 11005KT 19/01 A3002 RMK A01 T01890012  RH  031%=      5-min Rain = 0
KBR1 242333Z 13005KT 19/01 A3002 RMK A01 T01880011  RH  030%=      5-min Rain = 0
KBR1 242334Z 12004KT 19/01 A3002 RMK A01 T01880010  RH  030%=      5-min Rain = 0
KBR1 242335Z 14006KT 19/01 A3002 RMK A01 T01880009  RH  030%=      5-min Rain = 0
KBR1 242336Z 13008KT 19/01 A3002 RMK A01 T01880012  RH  031%=      5-min Rain = 0
KBR1 242337Z 14007KT 19/02 A3001 RMK A01 T01890016  RH  031%=      5-min Rain = 0
KBR1 242338Z 15006KT 19/01 A3001 RMK A01 T01900014  RH  031%=      5-min Rain = 0
KBR1 242339Z 12008KT 19/02 A3001 RMK A01 T01900015  RH  031%=      5-min Rain = 0
KBR1 242340Z 12009KT 19/01 A3001 RMK A01 T01900014  RH  031%=      5-min Rain = 0
KBR1 242341Z 13008KT 19/02 A3001 RMK A01 T01890018  RH  032%=      5-min Rain = 0
KBR1 242342Z 14006KT 19/02 A3001 RMK A01 T01890017  RH  032%=      5-min Rain = 0
KBR1 242343Z 13005KT 19/02 A3001 RMK A01 T01890018  RH  032%=      5-min Rain = 0
KBR1 242344Z 14005KT 19/02 A3001 RMK A01 T01890022  RH  033%=      5-min Rain = 0
KBR1 242345Z 14006KT 19/02 A3001 RMK A01 T01900015  RH  031%=      5-min Rain = 0
KBR1 242346Z 13007KT 19/01 A3001 RMK A01 T01900014  RH  031%=      5-min Rain = 0
KBR1 242347Z 13007KT 19/02 A3001 RMK A01 T01900021  RH  032%=      5-min Rain = 0
KBR1 242348Z 14006KT 19/01 A3001 RMK A01 T01900013  RH  031%=      5-min Rain = 0
KBR1 242349Z 15007KT 19/01 A3001 RMK A01 T01900011  RH  030%=      5-min Rain = 0
KBR1 242350Z 14007KT 19/01 A3001 RMK A01 T01900010  RH  030%=      5-min Rain = 0
KBR1 242351Z 12007KT 19/02 A3001 RMK A01 T01890015  RH  031%=      5-min Rain = 0
KBR1 242352Z 12006KT 19/01 A3001 RMK A01 T01900011  RH  030%=      5-min Rain = 0
KBR1 242353Z 13006KT 19/01 A3001 RMK A01 T01900014  RH  031%=      5-min Rain = 0
KBR1 242354Z 12005KT 19/01 A3001 RMK A01 T01900012  RH  030%=      5-min Rain = 0
KBR1 242355Z 14010KT 19/01 A3001 RMK A01 T01890012  RH  031%=      5-min Rain = 0
KBR1 242356Z 15007KT 19/01 A3001 RMK A01 T01890012  RH  030%=      5-min Rain = 0
KBR1 242357Z 13005KT 19/01 A3001 RMK A01 T01890013  RH  031%=      5-min Rain = 0
KBR1 242358Z 12007KT 19/02 A3001 RMK A01 T01890017  RH  032%=      5-min Rain = 0
KBR1 242359Z 12007KT 19/02 A3001 RMK A01 T01890018  RH  032%=      5-min Rain = 0
KBR1 250000Z 12007KT 19/02 A3001 RMK A01 T01890015  RH  031%=      5-min Rain = 0
KBR1 250001Z 11008KT 19/02 A3001 RMK A01 T01890018  RH  032%=      5-min Rain = 0
KBR1 250002Z 11010KT 19/02 A3001 RMK A01 T01880016  RH  032%=      5-min Rain = 0
KBR1 250003Z 11009KT 19/02 A3001 RMK A01 T01870019  RH  033%=      5-min Rain = 0
KBR1 250004Z 12010KT 19/02 A3001 RMK A01 T01870018  RH  032%=      5-min Rain = 0
KBR1 250005Z 12010KT 19/02 A3001 RMK A01 T01860018  RH  032%=      5-min Rain = 0
KBR1 250006Z 11009KT 19/02 A3001 RMK A01 T01860022  RH  034%=      5-min Rain = 0
KBR1 250007Z 11007KT 19/03 A3001 RMK A01 T01860026  RH  034%=      5-min Rain = 0
KBR1 250008Z 11009KT 19/03 A3001 RMK A01 T01860025  RH  034%=      5-min Rain = 0
KBR1 250009Z 12007KT 19/02 A3001 RMK A01 T01870021  RH  033%=      5-min Rain = 0
KBR1 250010Z 12007KT 19/03 A3001 RMK A01 T01860025  RH  034%=      5-min Rain = 0
KBR1 250011Z 13007KT 19/02 A3001 RMK A01 T01860016  RH  032%=      5-min Rain = 0
KBR1 250012Z 12008KT 19/02 A3001 RMK A01 T01860018  RH  032%=      5-min Rain = 0
KBR1 250013Z 12008KT 19/02 A3001 RMK A01 T01860016  RH  032%=      5-min Rain = 0
KBR1 250014Z 11008KT 19/01 A3001 RMK A01 T01850014  RH  032%=      5-min Rain = 0
KBR1 250015Z 11007KT 19/01 A3001 RMK A01 T01850014  RH  032%=      5-min Rain = 0
KBR1 250016Z 11007KT 19/02 A3001 RMK A01 T01850015  RH  032%=      5-min Rain = 0
KBR1 250017Z 12006KT 19/02 A3001 RMK A01 T01850019  RH  033%=      5-min Rain = 0
KBR1 250018Z 12007KT 19/02 A3001 RMK A01 T01850018  RH  033%=      5-min Rain = 0
KBR1 250019Z 12007KT 19/02 A3001 RMK A01 T01850016  RH  032%=      5-min Rain = 0
KBR1 250020Z 13007KT 19/02 A3001 RMK A01 T01850019  RH  033%=      5-min Rain = 0
KBR1 250021Z 12007KT 19/02 A3002 RMK A01 T01850017  RH  033%=      5-min Rain = 0
KBR1 250022Z 12008KT 19/02 A3002 RMK A01 T01850019  RH  033%=      5-min Rain = 0
KBR1 250023Z 13008KT 18/02 A3001 RMK A01 T01840017  RH  033%=      5-min Rain = 0
KBR1 250024Z 13009KT 18/02 A3001 RMK A01 T01830018  RH  033%=      5-min Rain = 0
KBR1 250025Z 12007KT 18/02 A3001 RMK A01 T01830020  RH  034%=      5-min Rain = 0
KBR1 250026Z 13008KT 18/02 A3002 RMK A01 T01820022  RH  034%=      5-min Rain = 0
KBR1 250027Z 13011KT 18/02 A3002 RMK A01 T01800022  RH  035%=      5-min Rain = 0
KBR1 250028Z 12012KT 18/03 A3002 RMK A01 T01780028  RH  037%=      5-min Rain = 0
KBR1 250029Z 12012KT 18/04 A3002 RMK A01 T01760035  RH  039%=      5-min Rain = 0
KBR1 250030Z 12011KT 18/04 A3002 RMK A01 T01750038  RH  040%=      5-min Rain = 0
KBR1 250031Z 12010KT 18/04 A3002 RMK A01 T01750039  RH  041%=      5-min Rain = 0
KBR1 250032Z 12010KT 17/04 A3002 RMK A01 T01740041  RH  041%=      5-min Rain = 0
KBR1 250033Z 12010KT 17/04 A3002 RMK A01 T01740043  RH  042%=      5-min Rain = 0
KBR1 250034Z 12011KT 17/04 A3002 RMK A01 T01730041  RH  041%=      5-min Rain = 0
KBR1 250035Z 12010KT 17/04 A3002 RMK A01 T01730042  RH  042%=      5-min Rain = 0
KBR1 250036Z 12011KT 17/04 A3002 RMK A01 T01720043  RH  042%=      5-min Rain = 0
KBR1 250037Z 12010KT 17/04 A3002 RMK A01 T01720043  RH  042%=      5-min Rain = 0
KBR1 250038Z 13010KT 17/04 A3002 RMK A01 T01710043  RH  043%=      5-min Rain = 0
KBR1 250039Z 12009KT 17/05 A3002 RMK A01 T01700045  RH  043%=      5-min Rain = 0
KBR1 250040Z 13009KT 17/05 A3002 RMK A01 T01700046  RH  044%=      5-min Rain = 0
KBR1 250041Z 12009KT 17/05 A3002 RMK A01 T01690045  RH  044%=      5-min Rain = 0
KBR1 250042Z 12008KT 17/05 A3002 RMK A01 T01680047  RH  044%=      5-min Rain = 0
KBR1 250043Z 12009KT 17/05 A3002 RMK A01 T01680047  RH  045%=      5-min Rain = 0
KBR1 250044Z 12009KT 17/05 A3002 RMK A01 T01670047  RH  045%=      5-min Rain = 0
KBR1 250045Z 12009KT 17/05 A3002 RMK A01 T01660047  RH  045%=      5-min Rain = 0
KBR1 250046Z 13009KT 17/05 A3002 RMK A01 T01660047  RH  045%=      5-min Rain = 0
KBR1 250047Z 12012KT 17/05 A3002 RMK A01 T01650048  RH  046%=      5-min Rain = 0
KBR1 250048Z 13012KT 16/05 A3002 RMK A01 T01640048  RH  046%=      5-min Rain = 0
KBR1 250049Z 13012KT 16/05 A3003 RMK A01 T01640048  RH  046%=      5-min Rain = 0
KBR1 250050Z 12011KT 16/05 A3003 RMK A01 T01630048  RH  046%=      5-min Rain = 0
KBR1 250051Z 12011KT 16/05 A3003 RMK A01 T01630049  RH  047%=      5-min Rain = 0
KBR1 250052Z 12011KT 16/05 A3003 RMK A01 T01620048  RH  047%=      5-min Rain = 0
KBR1 250053Z 12009KT 16/05 A3003 RMK A01 T01610049  RH  047%=      5-min Rain = 0
KBR1 250054Z 11009KT 16/05 A3003 RMK A01 T01600050  RH  048%=      5-min Rain = 0
KBR1 250055Z 12010KT 16/05 A3003 RMK A01 T01590049  RH  048%=      5-min Rain = 0
KBR1 250056Z 11010KT 16/05 A3003 RMK A01 T01580049  RH  048%=      5-min Rain = 0
KBR1 250057Z 11009KT 16/05 A3003 RMK A01 T01580050  RH  049%=      5-min Rain = 0
KBR1 250058Z 10008KT 16/05 A3003 RMK A01 T01560050  RH  049%=      5-min Rain = 0
KBR1 250059Z 10009KT 16/05 A3003 RMK A01 T01550051  RH  050%=      5-min Rain = 0
KBR1 250100Z 10009KT 15/05 A3003 RMK A01 T01540050  RH  050%=      5-min Rain = 0
KBR1 250101Z 10008KT 15/05 A3003 RMK A01 T01530051  RH  050%=      5-min Rain = 0
KBR1 250102Z 10009KT 15/05 A3003 RMK A01 T01520050  RH  051%=      5-min Rain = 0
KBR1 250103Z 10008KT 15/05 A3003 RMK A01 T01520051  RH  051%=      5-min Rain = 0
KBR1 250104Z 09008KT 15/05 A3003 RMK A01 T01510050  RH  051%=      5-min Rain = 0
KBR1 250105Z 09008KT 15/05 A3003 RMK A01 T01500050  RH  051%=      5-min Rain = 0
KBR1 250106Z 09008KT 15/05 A3003 RMK A01 T01490051  RH  052%=      5-min Rain = 0
KBR1 250107Z 10008KT 15/05 A3003 RMK A01 T01470050  RH  052%=      5-min Rain = 0
KBR1 250108Z 10008KT 15/05 A3003 RMK A01 T01470050  RH  052%=      5-min Rain = 0
KBR1 250109Z 10008KT 15/05 A3003 RMK A01 T01470049  RH  052%=      5-min Rain = 0
KBR1 250110Z 10008KT 15/05 A3003 RMK A01 T01470049  RH  052%=      5-min Rain = 0
KBR1 250111Z 10008KT 15/05 A3003 RMK A01 T01460050  RH  052%=      5-min Rain = 0
KBR1 250112Z 10008KT 15/05 A3003 RMK A01 T01460049  RH  052%=      5-min Rain = 0
KBR1 250113Z 10008KT 15/05 A3003 RMK A01 T01450051  RH  053%=      5-min Rain = 0
KBR1 250114Z 10008KT 14/05 A3004 RMK A01 T01440050  RH  053%=      5-min Rain = 0
KBR1 250115Z 10008KT 14/05 A3004 RMK A01 T01430050  RH  053%=      5-min Rain = 0
KBR1 250116Z 10009KT 14/05 A3004 RMK A01 T01430050  RH  054%=      5-min Rain = 0
KBR1 250117Z 10008KT 14/05 A3004 RMK A01 T01420051  RH  054%=      5-min Rain = 0
KBR1 250118Z 10008KT 14/05 A3004 RMK A01 T01410050  RH  054%=      5-min Rain = 0
KBR1 250119Z 10008KT 14/05 A3004 RMK A01 T01400050  RH  055%=      5-min Rain = 0
KBR1 250120Z 10008KT 14/05 A3004 RMK A01 T01390051  RH  055%=      5-min Rain = 0
KBR1 250121Z 10008KT 14/05 A3004 RMK A01 T01380050  RH  055%=      5-min Rain = 0
KBR1 250122Z 10008KT 14/05 A3004 RMK A01 T01370050  RH  056%=      5-min Rain = 0
KBR1 250123Z 10009KT 14/05 A3004 RMK A01 T01360049  RH  056%=      5-min Rain = 0
KBR1 250124Z 10008KT 14/05 A3004 RMK A01 T01370048  RH  055%=      5-min Rain = 0
KBR1 250125Z 10009KT 14/05 A3004 RMK A01 T01380050  RH  055%=      5-min Rain = 0
KBR1 250126Z 10009KT 14/05 A3004 RMK A01 T01370050  RH  055%=      5-min Rain = 0
KBR1 250127Z 10009KT 14/05 A3004 RMK A01 T01370051  RH  056%=      5-min Rain = 0
KBR1 250128Z 10009KT 14/05 A3004 RMK A01 T01360051  RH  056%=      5-min Rain = 0
KBR1 250129Z 09008KT 14/05 A3004 RMK A01 T01360051  RH  056%=      5-min Rain = 0
KBR1 250130Z 10008KT 14/05 A3004 RMK A01 T01360051  RH  057%=      5-min Rain = 0
KBR1 250131Z 10008KT 13/05 A3005 RMK A01 T01340052  RH  057%=      5-min Rain = 0
KBR1 250132Z 10008KT 13/05 A3005 RMK A01 T01330051  RH  057%=      5-min Rain = 0
KBR1 250133Z 10008KT 13/05 A3005 RMK A01 T01320051  RH  058%=      5-min Rain = 0
KBR1 250134Z 09007KT 13/05 A3005 RMK A01 T01310051  RH  058%=      5-min Rain = 0
KBR1 250135Z 09007KT 13/05 A3005 RMK A01 T01310051  RH  059%=      5-min Rain = 0
KBR1 250136Z 09007KT 13/05 A3005 RMK A01 T01290051  RH  059%=      5-min Rain = 0
KBR1 250137Z 09007KT 13/05 A3005 RMK A01 T01280051  RH  059%=      5-min Rain = 0
KBR1 250138Z 09007KT 13/05 A3005 RMK A01 T01270051  RH  060%=      5-min Rain = 0
KBR1 250139Z 09007KT 13/05 A3005 RMK A01 T01270050  RH  060%=      5-min Rain = 0
KBR1 250140Z 09007KT 13/05 A3005 RMK A01 T01260050  RH  060%=      5-min Rain = 0
KBR1 250141Z 09007KT 13/05 A3005 RMK A01 T01250050  RH  060%=      5-min Rain = 0
KBR1 250142Z 09007KT 12/05 A3005 RMK A01 T01240050  RH  061%=      5-min Rain = 0
KBR1 250143Z 09007KT 12/05 A3005 RMK A01 T01240050  RH  061%=      5-min Rain = 0
KBR1 250144Z 09007KT 12/05 A3005 RMK A01 T01240050  RH  061%=      5-min Rain = 0
KBR1 250145Z 08006KT 12/05 A3005 RMK A01 T01230050  RH  061%=      5-min Rain = 0
KBR1 250146Z 07006KT 12/05 A3005 RMK A01 T01210051  RH  062%=      5-min Rain = 0
KBR1 250147Z 07006KT 12/05 A3006 RMK A01 T01180051  RH  063%=      5-min Rain = 0
KBR1 250148Z 07007KT 12/05 A3006 RMK A01 T01160051  RH  064%=      5-min Rain = 0
KBR1 250149Z 07007KT 11/05 A3006 RMK A01 T01140051  RH  065%=      5-min Rain = 0
KBR1 250150Z 06007KT 11/05 A3006 RMK A01 T01130051  RH  066%=      5-min Rain = 0
KBR1 250151Z 06008KT 11/05 A3006 RMK A01 T01110052  RH  067%=      5-min Rain = 0
KBR1 250152Z 06008KT 11/05 A3006 RMK A01 T01100052  RH  067%=      5-min Rain = 0
KBR1 250153Z 06007KT 11/05 A3006 RMK A01 T01100052  RH  068%=      5-min Rain = 0
KBR1 250154Z 06008KT 11/05 A3006 RMK A01 T01100052  RH  067%=      5-min Rain = 0
KBR1 250155Z 06008KT 11/05 A3006 RMK A01 T01100052  RH  067%=      5-min Rain = 0
KBR1 250156Z 07009KT 11/05 A3006 RMK A01 T01110052  RH  067%=      5-min Rain = 0
KBR1 250157Z 07009KT 11/05 A3006 RMK A01 T01110052  RH  067%=      5-min Rain = 0
KBR1 250158Z 07008KT 11/05 A3006 RMK A01 T01110052  RH  067%=      5-min Rain = 0
KBR1 250159Z 06008KT 11/05 A3006 RMK A01 T01110053  RH  067%=      5-min Rain = 0
KBR1 250200Z 06008KT 11/05 A3006 RMK A01 T01110052  RH  067%=      5-min Rain = 0
KBR1 250201Z 06008KT 11/05 A3006 RMK A01 T01120053  RH  067%=      5-min Rain = 0
KBR1 250202Z 06008KT 11/05 A3006 RMK A01 T01120053  RH  067%=      5-min Rain = 0
KBR1 250203Z 07008KT 11/05 A3006 RMK A01 T01120053  RH  067%=      5-min Rain = 0
KBR1 250204Z 07009KT 11/05 A3006 RMK A01 T01120053  RH  067%=      5-min Rain = 0
KBR1 250205Z 07008KT 11/05 A3007 RMK A01 T01120052  RH  067%=      5-min Rain = 0
KBR1 250206Z 07008KT 11/05 A3007 RMK A01 T01120052  RH  067%=      5-min Rain = 0
KBR1 250207Z 07008KT 11/05 A3007 RMK A01 T01120052  RH  067%=      5-min Rain = 0
KBR1 250208Z 07008KT 11/05 A3007 RMK A01 T01110052  RH  067%=      5-min Rain = 0
KBR1 250209Z 07008KT 11/05 A3007 RMK A01 T01100052  RH  067%=      5-min Rain = 0
KBR1 250210Z 06008KT 11/05 A3007 RMK A01 T01100052  RH  067%=      5-min Rain = 0
KBR1 250211Z 05008KT 11/05 A3007 RMK A01 T01090052  RH  068%=      5-min Rain = 0
KBR1 250212Z 05008KT 11/05 A3007 RMK A01 T01080053  RH  069%=      5-min Rain = 0
KBR1 250213Z 05010KT 11/05 A3007 RMK A01 T01070053  RH  069%=      5-min Rain = 0
KBR1 250214Z 05009KT 11/05 A3007 RMK A01 T01060052  RH  070%=      5-min Rain = 0
KBR1 250215Z 05009KT 11/05 A3007 RMK A01 T01050052  RH  070%=      5-min Rain = 0
KBR1 250216Z 05008KT 11/05 A3007 RMK A01 T01050052  RH  070%=      5-min Rain = 0
KBR1 250217Z 05009KT 10/05 A3007 RMK A01 T01040052  RH  070%=      5-min Rain = 0
KBR1 250218Z 05009KT 10/05 A3007 RMK A01 T01040052  RH  070%=      5-min Rain = 0
KBR1 250219Z 06009KT 10/05 A3007 RMK A01 T01040052  RH  070%=      5-min Rain = 0
KBR1 250220Z 06009KT 10/05 A3007 RMK A01 T01040051  RH  070%=      5-min Rain = 0
KBR1 250221Z 06009KT 11/05 A3007 RMK A01 T01050051  RH  069%=      5-min Rain = 0
KBR1 250222Z 06009KT 11/05 A3007 RMK A01 T01060051  RH  069%=      5-min Rain = 0
KBR1 250223Z 07009KT 11/05 A3007 RMK A01 T01060051  RH  068%=      5-min Rain = 0
KBR1 250224Z 07009KT 11/05 A3007 RMK A01 T01070050  RH  068%=      5-min Rain = 0
KBR1 250225Z 07009KT 11/05 A3007 RMK A01 T01070050  RH  068%=      5-min Rain = 0
KBR1 250226Z 07009KT 11/05 A3007 RMK A01 T01070051  RH  068%=      5-min Rain = 0
KBR1 250227Z 07009KT 11/05 A3007 RMK A01 T01070051  RH  068%=      5-min Rain = 0
KBR1 250228Z 07009KT 11/05 A3007 RMK A01 T01060050  RH  068%=      5-min Rain = 0
KBR1 250229Z 07010KT 11/05 A3007 RMK A01 T01060051  RH  069%=      5-min Rain = 0
KBR1 250230Z 07010KT 11/05 A3007 RMK A01 T01050050  RH  068%=      5-min Rain = 0
KBR1 250231Z 07010KT 11/05 A3007 RMK A01 T01060049  RH  068%=      5-min Rain = 0
KBR1 250232Z 07010KT 11/05 A3007 RMK A01 T01060049  RH  068%=      5-min Rain = 0
KBR1 250233Z 07010KT 11/05 A3007 RMK A01 T01060049  RH  068%=      5-min Rain = 0
KBR1 250234Z 08011KT 11/05 A3007 RMK A01 T01060048  RH  067%=      5-min Rain = 0
KBR1 250235Z 07010KT 11/05 A3007 RMK A01 T01060049  RH  067%=      5-min Rain = 0
KBR1 250236Z 07010KT 11/05 A3007 RMK A01 T01060048  RH  067%=      5-min Rain = 0
KBR1 250237Z 08010KT 11/05 A3007 RMK A01 T01070048  RH  067%=      5-min Rain = 0
KBR1 250238Z 07010KT 11/05 A3007 RMK A01 T01070048  RH  067%=      5-min Rain = 0
KBR1 250239Z 07009KT 11/05 A3007 RMK A01 T01070048  RH  067%=      5-min Rain = 0
KBR1 250240Z 07010KT 11/05 A3008 RMK A01 T01070048  RH  067%=      5-min Rain = 0
KBR1 250241Z 07009KT 11/05 A3008 RMK A01 T01070048  RH  067%=      5-min Rain = 0
KBR1 250242Z 06009KT 11/05 A3008 RMK A01 T01070048  RH  067%=      5-min Rain = 0
KBR1 250243Z 06009KT 11/05 A3008 RMK A01 T01070048  RH  067%=      5-min Rain = 0
KBR1 250244Z 06009KT 11/05 A3008 RMK A01 T01070049  RH  067%=      5-min Rain = 0
KBR1 250245Z 06008KT 11/05 A3008 RMK A01 T01060048  RH  067%=      5-min Rain = 0
KBR1 250246Z 06008KT 11/05 A3008 RMK A01 T01060048  RH  067%=      5-min Rain = 0
KBR1 250247Z 06008KT 11/05 A3008 RMK A01 T01070048  RH  067%=      5-min Rain = 0
KBR1 250248Z 06008KT 11/05 A3008 RMK A01 T01070048  RH  067%=      5-min Rain = 0
KBR1 250249Z 06008KT 11/05 A3008 RMK A01 T01070048  RH  067%=      5-min Rain = 0
KBR1 250250Z 06007KT 11/05 A3008 RMK A01 T01060048  RH  067%=      5-min Rain = 0
KBR1 250251Z 06008KT 11/05 A3009 RMK A01 T01060048  RH  067%=      5-min Rain = 0
KBR1 250252Z 06008KT 11/05 A3009 RMK A01 T01060048  RH  067%=      5-min Rain = 0
KBR1 250253Z 06008KT 11/05 A3009 RMK A01 T01060048  RH  067%=      5-min Rain = 0
KBR1 250254Z 05008KT 11/05 A3009 RMK A01 T01060047  RH  067%=      5-min Rain = 0
KBR1 250255Z 06008KT 11/05 A3009 RMK A01 T01050048  RH  068%=      5-min Rain = 0
KBR1 250256Z 06008KT 10/05 A3009 RMK A01 T01040048  RH  068%=      5-min Rain = 0
KBR1 250257Z 06008KT 10/05 A3009 RMK A01 T01030047  RH  068%=      5-min Rain = 0
KBR1 250258Z 06008KT 10/05 A3009 RMK A01 T01020047  RH  069%=      5-min Rain = 0
KBR1 250259Z 06008KT 10/05 A3009 RMK A01 T01010047  RH  069%=      5-min Rain = 0
KBR1 250300Z 06008KT 10/05 A301 RMK A01 T01010047  RH  069%=      5-min Rain = 0
KBR1 250301Z 05008KT 10/05 A301 RMK A01 T01010047  RH  069%=      5-min Rain = 0
KBR1 250302Z 04007KT 10/05 A301 RMK A01 T01000047  RH  070%=      5-min Rain = 0
KBR1 250303Z 03008KT 10/05 A301 RMK A01 T00980047  RH  071%=      5-min Rain = 0
KBR1 250304Z 02008KT 10/05 A301 RMK A01 T00970048  RH  071%=      5-min Rain = 0
KBR1 250305Z 02008KT 10/05 A301 RMK A01 T00950047  RH  072%=      5-min Rain = 0
KBR1 250306Z 02009KT 09/05 A301 RMK A01 T00940047  RH  072%=      5-min Rain = 0
KBR1 250307Z 03010KT 09/05 A301 RMK A01 T00920047  RH  073%=      5-min Rain = 0
KBR1 250308Z 03010KT 09/05 A301 RMK A01 T00920047  RH  074%=      5-min Rain = 0
KBR1 250309Z 03010KT 09/05 A3011 RMK A01 T00930047  RH  073%=      5-min Rain = 0
KBR1 250310Z 04012KT 10/05 A3011 RMK A01 T00960047  RH  072%=      5-min Rain = 0
KBR1 250311Z 04012KT 10/05 A3011 RMK A01 T00980047  RH  070%=      5-min Rain = 0
KBR1 250312Z 04010KT 10/05 A3011 RMK A01 T01000047  RH  070%=      5-min Rain = 0
KBR1 250313Z 05011KT 10/05 A3011 RMK A01 T01010047  RH  069%=      5-min Rain = 0
KBR1 250314Z 05010KT 10/05 A3011 RMK A01 T01020047  RH  069%=      5-min Rain = 0
KBR1 250315Z 05010KT 10/05 A3011 RMK A01 T01030047  RH  068%=      5-min Rain = 0
KBR1 250316Z 05009KT 10/05 A3011 RMK A01 T01030047  RH  068%=      5-min Rain = 0
KBR1 250317Z 06009KT 10/05 A3011 RMK A01 T01030047  RH  068%=      5-min Rain = 0
KBR1 250318Z 06009KT 10/05 A3011 RMK A01 T01030046  RH  068%=      5-min Rain = 0
KBR1 250319Z 06009KT 10/05 A3011 RMK A01 T01030046  RH  067%=      5-min Rain = 0
KBR1 250320Z 07009KT 10/05 A3011 RMK A01 T01030045  RH  067%=      5-min Rain = 0
KBR1 250321Z 06009KT 10/05 A3011 RMK A01 T01040045  RH  067%=      5-min Rain = 0
KBR1 250322Z 06009KT 10/04 A3011 RMK A01 T01040044  RH  067%=      5-min Rain = 0
KBR1 250323Z 06009KT 10/04 A3011 RMK A01 T01040044  RH  066%=      5-min Rain = 0
KBR1 250324Z 05008KT 10/04 A3011 RMK A01 T01040044  RH  067%=      5-min Rain = 0
KBR1 250325Z 05008KT 10/05 A3011 RMK A01 T01030045  RH  067%=      5-min Rain = 0
KBR1 250326Z 04008KT 10/05 A3011 RMK A01 T01030045  RH  067%=      5-min Rain = 0
KBR1 250327Z 03008KT 10/05 A3012 RMK A01 T01010045  RH  068%=      5-min Rain = 0
KBR1 250328Z 03009KT 10/05 A3012 RMK A01 T01000045  RH  069%=      5-min Rain = 0
KBR1 250329Z 02009KT 10/05 A3012 RMK A01 T00990045  RH  069%=      5-min Rain = 0
KBR1 250330Z 02009KT 10/05 A3012 RMK A01 T00990045  RH  069%=      5-min Rain = 0
KBR1 250331Z 02009KT 10/05 A3012 RMK A01 T00990046  RH  070%=      5-min Rain = 0
KBR1 250332Z 02012KT 10/05 A3012 RMK A01 T00970045  RH  070%=      5-min Rain = 0
KBR1 250333Z 02012KT 10/04 A3012 RMK A01 T00960044  RH  070%=      5-min Rain = 0
KBR1 250334Z 02012KT 10/05 A3012 RMK A01 T00950045  RH  071%=      5-min Rain = 0
KBR1 250335Z 03013KT 09/04 A3012 RMK A01 T00940044  RH  071%=      5-min Rain = 0
KBR1 250336Z 03012KT 09/04 A3012 RMK A01 T00940044  RH  071%=      5-min Rain = 0
KBR1 250337Z 04011KT 10/04 A3012 RMK A01 T00960044  RH  070%=      5-min Rain = 0
KBR1 250338Z 04011KT 10/05 A3013 RMK A01 T00970045  RH  070%=      5-min Rain = 0
KBR1 250339Z 04011KT 10/04 A3013 RMK A01 T00980044  RH  069%=      5-min Rain = 0
KBR1 250340Z 05012KT 10/04 A3013 RMK A01 T00990044  RH  069%=      5-min Rain = 0
KBR1 250341Z 05012KT 10/04 A3013 RMK A01 T00990044  RH  068%=      5-min Rain = 0
KBR1 250342Z 05012KT 10/04 A3013 RMK A01 T01010044  RH  068%=      5-min Rain = 0
KBR1 250343Z 05012KT 10/04 A3013 RMK A01 T01010044  RH  068%=      5-min Rain = 0
KBR1 250344Z 05013KT 10/04 A3013 RMK A01 T01020044  RH  067%=      5-min Rain = 0
KBR1 250345Z 05013KT 10/04 A3013 RMK A01 T01020044  RH  067%=      5-min Rain = 0
KBR1 250346Z 04013KT 10/04 A3013 RMK A01 T01020044  RH  067%=      5-min Rain = 0
KBR1 250347Z 04013KT 10/04 A3014 RMK A01 T01010044  RH  067%=      5-min Rain = 0
KBR1 250348Z 03012KT 10/05 A3014 RMK A01 T01010045  RH  068%=      5-min Rain = 0
KBR1 250349Z 03012KT 10/05 A3014 RMK A01 T01010045  RH  068%=      5-min Rain = 0
KBR1 250350Z 02012KT 10/05 A3014 RMK A01 T01000045  RH  068%=      5-min Rain = 0
KBR1 250351Z 02012KT 10/04 A3014 RMK A01 T01000044  RH  068%=      5-min Rain = 0
KBR1 250352Z 02011KT 10/04 A3014 RMK A01 T00990044  RH  068%=      5-min Rain = 0
KBR1 250353Z 02010KT 10/04 A3014 RMK A01 T00980043  RH  069%=      5-min Rain = 0
KBR1 250354Z 02011KT 10/04 A3014 RMK A01 T00970043  RH  069%=      5-min Rain = 0
KBR1 250355Z 03010KT 10/04 A3014 RMK A01 T00970044  RH  070%=      5-min Rain = 0
KBR1 250356Z 03011KT 10/04 A3014 RMK A01 T00960044  RH  070%=      5-min Rain = 0
KBR1 250357Z 03009KT 10/04 A3015 RMK A01 T00950043  RH  070%=      5-min Rain = 0
KBR1 250358Z 02011KT 10/04 A3015 RMK A01 T00960044  RH  070%=      5-min Rain = 0
KBR1 250359Z 02012KT 10/04 A3015 RMK A01 T00960044  RH  070%=      5-min Rain = 0
KBR1 250400Z 02013KT 10/04 A3015 RMK A01 T00970044  RH  069%=      5-min Rain = 0
KBR1 250401Z 01013KT 10/04 A3015 RMK A01 T00970043  RH  069%=      5-min Rain = 0
KBR1 250402Z 01013KT 10/04 A3015 RMK A01 T00960044  RH  070%=      5-min Rain = 0
KBR1 250403Z 01013KT 09/04 A3015 RMK A01 T00930044  RH  071%=      5-min Rain = 0
KBR1 250404Z 01014KT 09/04 A3015 RMK A01 T00910044  RH  072%=      5-min Rain = 0
KBR1 250405Z 01013KT 09/04 A3015 RMK A01 T00910044  RH  073%=      5-min Rain = 0
KBR1 250406Z 01013KT 09/04 A3015 RMK A01 T00900044  RH  073%=      5-min Rain = 0
KBR1 250407Z 01013KT 09/05 A3015 RMK A01 T00900045  RH  074%=      5-min Rain = 0
KBR1 250408Z 02012KT 09/05 A3015 RMK A01 T00900046  RH  074%=      5-min Rain = 0
KBR1 250409Z 02012KT 09/05 A3015 RMK A01 T00900046  RH  074%=      5-min Rain = 0
KBR1 250410Z 02013KT 09/05 A3015 RMK A01 T00900047  RH  074%=      5-min Rain = 0
KBR1 250411Z 02012KT 09/05 A3015 RMK A01 T00900047  RH  074%=      5-min Rain = 0
KBR1 250412Z 03013KT 09/05 A3015 RMK A01 T00910047  RH  074%=      5-min Rain = 0
KBR1 250413Z 02012KT 09/05 A3015 RMK A01 T00920048  RH  074%=      5-min Rain = 0
KBR1 250414Z 02013KT 09/05 A3015 RMK A01 T00930047  RH  073%=      5-min Rain = 0
KBR1 250415Z 01012KT 09/05 A3015 RMK A01 T00920048  RH  074%=      5-min Rain = 0
KBR1 250416Z 01012KT 09/05 A3016 RMK A01 T00910048  RH  074%=      5-min Rain = 0
KBR1 250417Z 01012KT 09/05 A3016 RMK A01 T00900049  RH  075%=      5-min Rain = 0
KBR1 250418Z 01012KT 09/05 A3016 RMK A01 T00890048  RH  076%=      5-min Rain = 0
KBR1 250419Z 01014KT 09/05 A3016 RMK A01 T00880049  RH  076%=      5-min Rain = 0
KBR1 250420Z 01014KT 09/05 A3016 RMK A01 T00880049  RH  077%=      5-min Rain = 0
KBR1 250421Z 01013KT 09/05 A3016 RMK A01 T00880049  RH  076%=      5-min Rain = 0
KBR1 250422Z 01014KT 09/05 A3016 RMK A01 T00880049  RH  076%=      5-min Rain = 0
KBR1 250423Z 01013KT 09/05 A3016 RMK A01 T00890049  RH  076%=      5-min Rain = 0
KBR1 250424Z 01012KT 09/05 A3016 RMK A01 T00880049  RH  077%=      5-min Rain = 0
KBR1 250425Z 01011KT 09/05 A3016 RMK A01 T00880050  RH  077%=      5-min Rain = 0
KBR1 250426Z 01011KT 09/05 A3016 RMK A01 T00860050  RH  078%=      5-min Rain = 0
KBR1 250427Z 00011KT 09/05 A3016 RMK A01 T00850050  RH  078%=      5-min Rain = 0
KBR1 250428Z 36011KT 09/05 A3016 RMK A01 T00850050  RH  079%=      5-min Rain = 0
KBR1 250429Z 36011KT 08/05 A3016 RMK A01 T00840051  RH  080%=      5-min Rain = 0
KBR1 250430Z 36011KT 08/05 A3017 RMK A01 T00830052  RH  081%=      5-min Rain = 0
KBR1 250431Z 36012KT 08/05 A3017 RMK A01 T00820053  RH  082%=      5-min Rain = 0
KBR1 250432Z 01013KT 08/05 A3017 RMK A01 T00810053  RH  083%=      5-min Rain = 0
KBR1 250433Z 02013KT 08/05 A3017 RMK A01 T00810054  RH  083%=      5-min Rain = 0
KBR1 250434Z 03014KT 08/05 A3016 RMK A01 T00800053  RH  083%=      5-min Rain = 0
KBR1 250435Z 04015KT 08/05 A3016 RMK A01 T00810054  RH  083%=      5-min Rain = 0
KBR1 250436Z 04015KT 08/06 A3016 RMK A01 T00810055  RH  083%=      5-min Rain = 0
KBR1 250437Z 04015KT 08/06 A3016 RMK A01 T00820055  RH  083%=      5-min Rain = 0
KBR1 250438Z 03013KT 08/06 A3016 RMK A01 T00840055  RH  082%=      5-min Rain = 0
KBR1 250439Z 01013KT 08/06 A3017 RMK A01 T00840055  RH  082%=      5-min Rain = 0
KBR1 250440Z 01012KT 08/06 A3017 RMK A01 T00830055  RH  082%=      5-min Rain = 0
KBR1 250441Z 01011KT 08/06 A3017 RMK A01 T00810055  RH  083%=      5-min Rain = 0
KBR1 250442Z 01012KT 08/06 A3017 RMK A01 T00800055  RH  084%=      5-min Rain = 0
KBR1 250443Z 00013KT 08/05 A3017 RMK A01 T00790054  RH  084%=      5-min Rain = 0
KBR1 250444Z 01018KT 08/06 A3017 RMK A01 T00800055  RH  084%=      5-min Rain = 0
KBR1 250445Z 02018KT 09/06 A3017 RMK A01 T00850055  RH  082%=      5-min Rain = 0
KBR1 250446Z 04019KT 09/06 A3016 RMK A01 T00920055  RH  077%=      5-min Rain = 0
KBR1 250447Z 05020KT 10/05 A3016 RMK A01 T00970053  RH  074%=      5-min Rain = 0
KBR1 250448Z 06022KT 10/05 A3015 RMK A01 T01010051  RH  071%=      5-min Rain = 0
KBR1 250449Z 06021KT 11/05 A3015 RMK A01 T01050050  RH  069%=      5-min Rain = 0
KBR1 250450Z 06021KT 11/05 A3015 RMK A01 T01070048  RH  067%=      5-min Rain = 0
KBR1 250451Z 06017KT 11/05 A3016 RMK A01 T01110048  RH  065%=      5-min Rain = 0
KBR1 250452Z 05016KT 11/05 A3016 RMK A01 T01110048  RH  065%=      5-min Rain = 0
KBR1 250453Z 03014KT 11/05 A3017 RMK A01 T01110049  RH  066%=      5-min Rain = 0
KBR1 250454Z 36012KT 11/05 A3018 RMK A01 T01090049  RH  066%=      5-min Rain = 0
KBR1 250455Z 34013KT 11/05 A3018 RMK A01 T01060050  RH  069%=      5-min Rain = 0
KBR1 250456Z 35014KT 10/05 A3018 RMK A01 T00990051  RH  072%=      5-min Rain = 0
KBR1 250457Z 35012KT 10/05 A3018 RMK A01 T00950051  RH  074%=      5-min Rain = 0
KBR1 250458Z 35012KT 09/05 A3018 RMK A01 T00930051  RH  075%=      5-min Rain = 0
KBR1 250459Z 35010KT 09/05 A3018 RMK A01 T00930051  RH  075%=      5-min Rain = 0

Page generated in 0.1258 seconds.